<?xml version="1.0" encoding="UTF-8" standalone="no" ?>
<gpx xmlns="http://www.topografix.com/GPX/1/1" xmlns:xsi="http://www.w3.org/2001/XMLSchema-instance" xsi:schemaLocation="http://www.topografix.com/GPX/1/1 http://www.topografix.com/GPX/1/1/gpx.xsd" version="1.1" creator="VisuGPX - https://www.visugpx.com">
  <metadata>
    <name>13 oct. 2022 à 10:21:58</name>
    <desc><![CDATA[13 oct. 2022 à 10:21:58

]]></desc>
  </metadata>
  <trk>
    <name><![CDATA[13 oct. 2022 à 10:21:58]]></name>
    <cmt><![CDATA[13 oct. 2022 à 10:21:58]]></cmt>
    <trkseg>
      <trkpt lat="45.98783" lon="4.62488">
        <ele>351</ele>
        <time>2022-10-13T08:21:58Z</time>
      </trkpt>
      <trkpt lat="45.98779" lon="4.62495">
        <ele>350</ele>
        <time>2022-10-13T08:22:46Z</time>
      </trkpt>
      <trkpt lat="45.98772" lon="4.62489">
        <ele>350</ele>
        <time>2022-10-13T08:24:46Z</time>
      </trkpt>
      <trkpt lat="45.98761" lon="4.62486">
        <ele>350</ele>
        <time>2022-10-13T08:24:57Z</time>
      </trkpt>
      <trkpt lat="45.98755" lon="4.62487">
        <ele>349</ele>
        <time>2022-10-13T08:25:05Z</time>
      </trkpt>
      <trkpt lat="45.98751" lon="4.62493">
        <ele>348</ele>
        <time>2022-10-13T08:25:12Z</time>
      </trkpt>
      <trkpt lat="45.98752" lon="4.62501">
        <ele>347</ele>
        <time>2022-10-13T08:25:18Z</time>
      </trkpt>
      <trkpt lat="45.98755" lon="4.6251">
        <ele>347</ele>
        <time>2022-10-13T08:25:24Z</time>
      </trkpt>
      <trkpt lat="45.98741" lon="4.62522">
        <ele>343</ele>
        <time>2022-10-13T08:25:43Z</time>
      </trkpt>
      <trkpt lat="45.98731" lon="4.62539">
        <ele>341</ele>
        <time>2022-10-13T08:25:55Z</time>
      </trkpt>
      <trkpt lat="45.98719" lon="4.62545">
        <ele>339</ele>
        <time>2022-10-13T08:26:06Z</time>
      </trkpt>
      <trkpt lat="45.98706" lon="4.62546">
        <ele>337</ele>
        <time>2022-10-13T08:26:17Z</time>
      </trkpt>
      <trkpt lat="45.987" lon="4.6255">
        <ele>337</ele>
        <time>2022-10-13T08:26:22Z</time>
      </trkpt>
      <trkpt lat="45.98687" lon="4.6257">
        <ele>336</ele>
        <time>2022-10-13T08:26:41Z</time>
      </trkpt>
      <trkpt lat="45.98681" lon="4.62592">
        <ele>333</ele>
        <time>2022-10-13T08:26:59Z</time>
      </trkpt>
      <trkpt lat="45.98678" lon="4.62606">
        <ele>332</ele>
        <time>2022-10-13T08:27:08Z</time>
      </trkpt>
      <trkpt lat="45.98676" lon="4.62614">
        <ele>331</ele>
        <time>2022-10-13T08:27:13Z</time>
      </trkpt>
      <trkpt lat="45.98675" lon="4.6262">
        <ele>331</ele>
        <time>2022-10-13T08:27:17Z</time>
      </trkpt>
      <trkpt lat="45.9867" lon="4.62635">
        <ele>329</ele>
        <time>2022-10-13T08:27:28Z</time>
      </trkpt>
      <trkpt lat="45.98669" lon="4.62642">
        <ele>329</ele>
        <time>2022-10-13T08:27:33Z</time>
      </trkpt>
      <trkpt lat="45.98664" lon="4.62656">
        <ele>328</ele>
        <time>2022-10-13T08:27:43Z</time>
      </trkpt>
      <trkpt lat="45.98647" lon="4.62683">
        <ele>325</ele>
        <time>2022-10-13T08:28:03Z</time>
      </trkpt>
      <trkpt lat="45.9864" lon="4.62694">
        <ele>325</ele>
        <time>2022-10-13T08:28:12Z</time>
      </trkpt>
      <trkpt lat="45.98609" lon="4.62732">
        <ele>324</ele>
        <time>2022-10-13T08:28:45Z</time>
      </trkpt>
      <trkpt lat="45.98587" lon="4.62773">
        <ele>322</ele>
        <time>2022-10-13T08:29:15Z</time>
      </trkpt>
      <trkpt lat="45.98578" lon="4.62791">
        <ele>322</ele>
        <time>2022-10-13T08:29:29Z</time>
      </trkpt>
      <trkpt lat="45.98573" lon="4.62802">
        <ele>321</ele>
        <time>2022-10-13T08:29:37Z</time>
      </trkpt>
      <trkpt lat="45.9857" lon="4.62808">
        <ele>321</ele>
        <time>2022-10-13T08:29:41Z</time>
      </trkpt>
      <trkpt lat="45.98562" lon="4.62826">
        <ele>321</ele>
        <time>2022-10-13T08:29:53Z</time>
      </trkpt>
      <trkpt lat="45.98555" lon="4.62837">
        <ele>321</ele>
        <time>2022-10-13T08:30:02Z</time>
      </trkpt>
      <trkpt lat="45.98545" lon="4.62845">
        <ele>321</ele>
        <time>2022-10-13T08:30:11Z</time>
      </trkpt>
      <trkpt lat="45.98537" lon="4.62855">
        <ele>321</ele>
        <time>2022-10-13T08:30:19Z</time>
      </trkpt>
      <trkpt lat="45.9852" lon="4.62875">
        <ele>321</ele>
        <time>2022-10-13T08:30:36Z</time>
      </trkpt>
      <trkpt lat="45.98501" lon="4.62892">
        <ele>322</ele>
        <time>2022-10-13T08:30:53Z</time>
      </trkpt>
      <trkpt lat="45.98498" lon="4.62896">
        <ele>322</ele>
        <time>2022-10-13T08:30:56Z</time>
      </trkpt>
      <trkpt lat="45.98461" lon="4.62923">
        <ele>323</ele>
        <time>2022-10-13T08:31:27Z</time>
      </trkpt>
      <trkpt lat="45.98452" lon="4.62929">
        <ele>323</ele>
        <time>2022-10-13T08:31:35Z</time>
      </trkpt>
      <trkpt lat="45.98433" lon="4.62936">
        <ele>324</ele>
        <time>2022-10-13T08:31:52Z</time>
      </trkpt>
      <trkpt lat="45.98424" lon="4.62942">
        <ele>324</ele>
        <time>2022-10-13T08:32:00Z</time>
      </trkpt>
      <trkpt lat="45.98385" lon="4.6296">
        <ele>325</ele>
        <time>2022-10-13T08:32:34Z</time>
      </trkpt>
      <trkpt lat="45.9838" lon="4.62963">
        <ele>325</ele>
        <time>2022-10-13T08:32:38Z</time>
      </trkpt>
      <trkpt lat="45.9836" lon="4.62975">
        <ele>323</ele>
        <time>2022-10-13T08:32:56Z</time>
      </trkpt>
      <trkpt lat="45.98355" lon="4.62979">
        <ele>322</ele>
        <time>2022-10-13T08:33:01Z</time>
      </trkpt>
      <trkpt lat="45.98352" lon="4.62986">
        <ele>322</ele>
        <time>2022-10-13T08:33:05Z</time>
      </trkpt>
      <trkpt lat="45.98353" lon="4.63004">
        <ele>321</ele>
        <time>2022-10-13T08:33:17Z</time>
      </trkpt>
      <trkpt lat="45.98355" lon="4.63011">
        <ele>321</ele>
        <time>2022-10-13T08:33:21Z</time>
      </trkpt>
      <trkpt lat="45.98358" lon="4.63017">
        <ele>321</ele>
        <time>2022-10-13T08:33:26Z</time>
      </trkpt>
      <trkpt lat="45.98364" lon="4.63028">
        <ele>321</ele>
        <time>2022-10-13T08:33:34Z</time>
      </trkpt>
      <trkpt lat="45.98394" lon="4.63062">
        <ele>317</ele>
        <time>2022-10-13T08:34:04Z</time>
      </trkpt>
      <trkpt lat="45.98401" lon="4.63077">
        <ele>317</ele>
        <time>2022-10-13T08:34:15Z</time>
      </trkpt>
      <trkpt lat="45.98415" lon="4.63093">
        <ele>314</ele>
        <time>2022-10-13T08:34:29Z</time>
      </trkpt>
      <trkpt lat="45.98412" lon="4.63102">
        <ele>314</ele>
        <time>2022-10-13T08:34:36Z</time>
      </trkpt>
      <trkpt lat="45.9839" lon="4.63142">
        <ele>315</ele>
        <time>2022-10-13T08:35:07Z</time>
      </trkpt>
      <trkpt lat="45.98373" lon="4.63171">
        <ele>315</ele>
        <time>2022-10-13T08:35:29Z</time>
      </trkpt>
      <trkpt lat="45.9837" lon="4.63177">
        <ele>315</ele>
        <time>2022-10-13T08:35:34Z</time>
      </trkpt>
      <trkpt lat="45.98366" lon="4.63182">
        <ele>315</ele>
        <time>2022-10-13T08:35:38Z</time>
      </trkpt>
      <trkpt lat="45.9836" lon="4.63194">
        <ele>315</ele>
        <time>2022-10-13T08:35:46Z</time>
      </trkpt>
      <trkpt lat="45.98354" lon="4.63214">
        <ele>314</ele>
        <time>2022-10-13T08:35:58Z</time>
      </trkpt>
      <trkpt lat="45.98349" lon="4.63269">
        <ele>312</ele>
        <time>2022-10-13T08:36:30Z</time>
      </trkpt>
      <trkpt lat="45.98345" lon="4.63326">
        <ele>310</ele>
        <time>2022-10-13T08:37:03Z</time>
      </trkpt>
      <trkpt lat="45.98337" lon="4.63384">
        <ele>308</ele>
        <time>2022-10-13T08:37:35Z</time>
      </trkpt>
      <trkpt lat="45.98328" lon="4.6344">
        <ele>305</ele>
        <time>2022-10-13T08:38:06Z</time>
      </trkpt>
      <trkpt lat="45.98316" lon="4.63483">
        <ele>303</ele>
        <time>2022-10-13T08:38:34Z</time>
      </trkpt>
      <trkpt lat="45.98311" lon="4.63494">
        <ele>302</ele>
        <time>2022-10-13T08:38:42Z</time>
      </trkpt>
      <trkpt lat="45.98297" lon="4.63515">
        <ele>301</ele>
        <time>2022-10-13T08:38:58Z</time>
      </trkpt>
      <trkpt lat="45.9828" lon="4.63567">
        <ele>297</ele>
        <time>2022-10-13T08:39:31Z</time>
      </trkpt>
      <trkpt lat="45.98278" lon="4.63584">
        <ele>296</ele>
        <time>2022-10-13T08:39:41Z</time>
      </trkpt>
      <trkpt lat="45.98271" lon="4.63612">
        <ele>294</ele>
        <time>2022-10-13T08:39:58Z</time>
      </trkpt>
      <trkpt lat="45.98271" lon="4.63628">
        <ele>293</ele>
        <time>2022-10-13T08:40:07Z</time>
      </trkpt>
      <trkpt lat="45.98273" lon="4.63665">
        <ele>290</ele>
        <time>2022-10-13T08:40:29Z</time>
      </trkpt>
      <trkpt lat="45.98266" lon="4.63716">
        <ele>285</ele>
        <time>2022-10-13T08:41:01Z</time>
      </trkpt>
      <trkpt lat="45.98247" lon="4.63765">
        <ele>279</ele>
        <time>2022-10-13T08:41:34Z</time>
      </trkpt>
      <trkpt lat="45.98243" lon="4.63772">
        <ele>278</ele>
        <time>2022-10-13T08:41:39Z</time>
      </trkpt>
      <trkpt lat="45.98227" lon="4.63818">
        <ele>273</ele>
        <time>2022-10-13T08:42:09Z</time>
      </trkpt>
      <trkpt lat="45.98225" lon="4.63843">
        <ele>271</ele>
        <time>2022-10-13T08:42:21Z</time>
      </trkpt>
      <trkpt lat="45.98226" lon="4.63858">
        <ele>269</ele>
        <time>2022-10-13T08:42:29Z</time>
      </trkpt>
      <trkpt lat="45.98225" lon="4.63879">
        <ele>267</ele>
        <time>2022-10-13T08:42:42Z</time>
      </trkpt>
      <trkpt lat="45.98222" lon="4.63884">
        <ele>267</ele>
        <time>2022-10-13T08:42:47Z</time>
      </trkpt>
      <trkpt lat="45.98217" lon="4.63884">
        <ele>266</ele>
        <time>2022-10-13T08:42:51Z</time>
      </trkpt>
      <trkpt lat="45.98212" lon="4.63881">
        <ele>266</ele>
        <time>2022-10-13T08:42:55Z</time>
      </trkpt>
      <trkpt lat="45.98185" lon="4.63857">
        <ele>264</ele>
        <time>2022-10-13T08:43:29Z</time>
      </trkpt>
      <trkpt lat="45.98153" lon="4.63847">
        <ele>261</ele>
        <time>2022-10-13T08:44:02Z</time>
      </trkpt>
      <trkpt lat="45.98144" lon="4.63845">
        <ele>262</ele>
        <time>2022-10-13T08:44:12Z</time>
      </trkpt>
      <trkpt lat="45.98138" lon="4.63841">
        <ele>261</ele>
        <time>2022-10-13T08:44:17Z</time>
      </trkpt>
      <trkpt lat="45.98129" lon="4.63841">
        <ele>261</ele>
        <time>2022-10-13T08:44:25Z</time>
      </trkpt>
      <trkpt lat="45.98113" lon="4.63853">
        <ele>261</ele>
        <time>2022-10-13T08:44:39Z</time>
      </trkpt>
      <trkpt lat="45.98107" lon="4.63862">
        <ele>261</ele>
        <time>2022-10-13T08:44:50Z</time>
      </trkpt>
      <trkpt lat="45.98099" lon="4.63864">
        <ele>261</ele>
        <time>2022-10-13T08:44:58Z</time>
      </trkpt>
      <trkpt lat="45.98093" lon="4.63864">
        <ele>261</ele>
        <time>2022-10-13T08:45:03Z</time>
      </trkpt>
      <trkpt lat="45.98083" lon="4.6387">
        <ele>262</ele>
        <time>2022-10-13T08:45:12Z</time>
      </trkpt>
      <trkpt lat="45.98078" lon="4.63875">
        <ele>261</ele>
        <time>2022-10-13T08:45:17Z</time>
      </trkpt>
      <trkpt lat="45.98067" lon="4.63895">
        <ele>262</ele>
        <time>2022-10-13T08:45:31Z</time>
      </trkpt>
      <trkpt lat="45.98065" lon="4.63903">
        <ele>262</ele>
        <time>2022-10-13T08:45:36Z</time>
      </trkpt>
      <trkpt lat="45.98047" lon="4.63942">
        <ele>265</ele>
        <time>2022-10-13T08:46:07Z</time>
      </trkpt>
      <trkpt lat="45.98036" lon="4.63971">
        <ele>269</ele>
        <time>2022-10-13T08:46:37Z</time>
      </trkpt>
      <trkpt lat="45.98031" lon="4.63984">
        <ele>271</ele>
        <time>2022-10-13T08:46:50Z</time>
      </trkpt>
      <trkpt lat="45.98018" lon="4.63995">
        <ele>275</ele>
        <time>2022-10-13T08:47:11Z</time>
      </trkpt>
      <trkpt lat="45.98011" lon="4.63997">
        <ele>276</ele>
        <time>2022-10-13T08:47:19Z</time>
      </trkpt>
      <trkpt lat="45.97985" lon="4.63995">
        <ele>282</ele>
        <time>2022-10-13T08:47:50Z</time>
      </trkpt>
      <trkpt lat="45.9796" lon="4.63992">
        <ele>287</ele>
        <time>2022-10-13T08:48:24Z</time>
      </trkpt>
      <trkpt lat="45.97954" lon="4.63992">
        <ele>288</ele>
        <time>2022-10-13T08:48:30Z</time>
      </trkpt>
      <trkpt lat="45.97934" lon="4.63988">
        <ele>291</ele>
        <time>2022-10-13T08:48:52Z</time>
      </trkpt>
      <trkpt lat="45.97924" lon="4.63988">
        <ele>292</ele>
        <time>2022-10-13T08:49:02Z</time>
      </trkpt>
      <trkpt lat="45.97904" lon="4.63988">
        <ele>294</ele>
        <time>2022-10-13T08:49:21Z</time>
      </trkpt>
      <trkpt lat="45.97894" lon="4.63989">
        <ele>294</ele>
        <time>2022-10-13T08:49:31Z</time>
      </trkpt>
      <trkpt lat="45.9789" lon="4.63987">
        <ele>294</ele>
        <time>2022-10-13T08:49:35Z</time>
      </trkpt>
      <trkpt lat="45.97878" lon="4.63989">
        <ele>295</ele>
        <time>2022-10-13T08:49:48Z</time>
      </trkpt>
      <trkpt lat="45.97872" lon="4.6399">
        <ele>295</ele>
        <time>2022-10-13T08:49:58Z</time>
      </trkpt>
      <trkpt lat="45.97864" lon="4.63951">
        <ele>296</ele>
        <time>2022-10-13T08:50:30Z</time>
      </trkpt>
      <trkpt lat="45.97861" lon="4.63921">
        <ele>298</ele>
        <time>2022-10-13T08:50:51Z</time>
      </trkpt>
      <trkpt lat="45.97858" lon="4.63883">
        <ele>301</ele>
        <time>2022-10-13T08:51:19Z</time>
      </trkpt>
      <trkpt lat="45.97849" lon="4.63833">
        <ele>305</ele>
        <time>2022-10-13T08:51:53Z</time>
      </trkpt>
      <trkpt lat="45.97842" lon="4.63784">
        <ele>307</ele>
        <time>2022-10-13T08:52:26Z</time>
      </trkpt>
      <trkpt lat="45.97836" lon="4.6374">
        <ele>309</ele>
        <time>2022-10-13T08:52:56Z</time>
      </trkpt>
      <trkpt lat="45.9783" lon="4.63698">
        <ele>311</ele>
        <time>2022-10-13T08:53:26Z</time>
      </trkpt>
      <trkpt lat="45.97819" lon="4.63648">
        <ele>312</ele>
        <time>2022-10-13T08:54:00Z</time>
      </trkpt>
      <trkpt lat="45.97819" lon="4.63642">
        <ele>313</ele>
        <time>2022-10-13T08:54:05Z</time>
      </trkpt>
      <trkpt lat="45.97819" lon="4.63607">
        <ele>314</ele>
        <time>2022-10-13T08:54:27Z</time>
      </trkpt>
      <trkpt lat="45.97819" lon="4.636">
        <ele>315</ele>
        <time>2022-10-13T08:54:32Z</time>
      </trkpt>
      <trkpt lat="45.97819" lon="4.63592">
        <ele>315</ele>
        <time>2022-10-13T08:54:37Z</time>
      </trkpt>
      <trkpt lat="45.97822" lon="4.63547">
        <ele>316</ele>
        <time>2022-10-13T08:55:10Z</time>
      </trkpt>
      <trkpt lat="45.97827" lon="4.63498">
        <ele>318</ele>
        <time>2022-10-13T08:55:41Z</time>
      </trkpt>
      <trkpt lat="45.97824" lon="4.63456">
        <ele>320</ele>
        <time>2022-10-13T08:56:07Z</time>
      </trkpt>
      <trkpt lat="45.97823" lon="4.63446">
        <ele>320</ele>
        <time>2022-10-13T08:56:13Z</time>
      </trkpt>
      <trkpt lat="45.97823" lon="4.63399">
        <ele>321</ele>
        <time>2022-10-13T08:56:43Z</time>
      </trkpt>
      <trkpt lat="45.97823" lon="4.6337">
        <ele>322</ele>
        <time>2022-10-13T08:57:00Z</time>
      </trkpt>
      <trkpt lat="45.97821" lon="4.63363">
        <ele>322</ele>
        <time>2022-10-13T08:57:04Z</time>
      </trkpt>
      <trkpt lat="45.9782" lon="4.63356">
        <ele>322</ele>
        <time>2022-10-13T08:57:09Z</time>
      </trkpt>
      <trkpt lat="45.97813" lon="4.63311">
        <ele>325</ele>
        <time>2022-10-13T08:57:40Z</time>
      </trkpt>
      <trkpt lat="45.97811" lon="4.63304">
        <ele>325</ele>
        <time>2022-10-13T08:57:45Z</time>
      </trkpt>
      <trkpt lat="45.9781" lon="4.63298">
        <ele>326</ele>
        <time>2022-10-13T08:57:50Z</time>
      </trkpt>
      <trkpt lat="45.97807" lon="4.63291">
        <ele>326</ele>
        <time>2022-10-13T08:57:56Z</time>
      </trkpt>
      <trkpt lat="45.97805" lon="4.63279">
        <ele>328</ele>
        <time>2022-10-13T09:01:12Z</time>
      </trkpt>
      <trkpt lat="45.97792" lon="4.63231">
        <ele>331</ele>
        <time>2022-10-13T09:01:46Z</time>
      </trkpt>
      <trkpt lat="45.9778" lon="4.63186">
        <ele>334</ele>
        <time>2022-10-13T09:02:20Z</time>
      </trkpt>
      <trkpt lat="45.97768" lon="4.63146">
        <ele>336</ele>
        <time>2022-10-13T09:02:50Z</time>
      </trkpt>
      <trkpt lat="45.97756" lon="4.63102">
        <ele>338</ele>
        <time>2022-10-13T09:03:21Z</time>
      </trkpt>
      <trkpt lat="45.97743" lon="4.63055">
        <ele>340</ele>
        <time>2022-10-13T09:03:54Z</time>
      </trkpt>
      <trkpt lat="45.97729" lon="4.63007">
        <ele>343</ele>
        <time>2022-10-13T09:04:27Z</time>
      </trkpt>
      <trkpt lat="45.97724" lon="4.62975">
        <ele>345</ele>
        <time>2022-10-13T09:04:51Z</time>
      </trkpt>
      <trkpt lat="45.97727" lon="4.62969">
        <ele>345</ele>
        <time>2022-10-13T09:04:56Z</time>
      </trkpt>
      <trkpt lat="45.9773" lon="4.62965">
        <ele>344</ele>
        <time>2022-10-13T09:05:01Z</time>
      </trkpt>
      <trkpt lat="45.97752" lon="4.62985">
        <ele>343</ele>
        <time>2022-10-13T09:05:32Z</time>
      </trkpt>
      <trkpt lat="45.97786" lon="4.63011">
        <ele>339</ele>
        <time>2022-10-13T09:06:04Z</time>
      </trkpt>
      <trkpt lat="45.978" lon="4.63025">
        <ele>337</ele>
        <time>2022-10-13T09:06:19Z</time>
      </trkpt>
      <trkpt lat="45.97827" lon="4.63059">
        <ele>333</ele>
        <time>2022-10-13T09:06:51Z</time>
      </trkpt>
      <trkpt lat="45.97855" lon="4.6309">
        <ele>327</ele>
        <time>2022-10-13T09:07:23Z</time>
      </trkpt>
      <trkpt lat="45.97867" lon="4.63098">
        <ele>325</ele>
        <time>2022-10-13T09:07:39Z</time>
      </trkpt>
      <trkpt lat="45.97895" lon="4.6311">
        <ele>320</ele>
        <time>2022-10-13T09:08:09Z</time>
      </trkpt>
      <trkpt lat="45.979" lon="4.6311">
        <ele>319</ele>
        <time>2022-10-13T09:08:14Z</time>
      </trkpt>
      <trkpt lat="45.97902" lon="4.6312">
        <ele>318</ele>
        <time>2022-10-13T09:08:22Z</time>
      </trkpt>
      <trkpt lat="45.97905" lon="4.63125">
        <ele>317</ele>
        <time>2022-10-13T09:08:26Z</time>
      </trkpt>
      <trkpt lat="45.9791" lon="4.63117">
        <ele>317</ele>
        <time>2022-10-13T09:08:34Z</time>
      </trkpt>
      <trkpt lat="45.97916" lon="4.63095">
        <ele>314</ele>
        <time>2022-10-13T09:08:51Z</time>
      </trkpt>
      <trkpt lat="45.9792" lon="4.63089">
        <ele>314</ele>
        <time>2022-10-13T09:08:56Z</time>
      </trkpt>
      <trkpt lat="45.97922" lon="4.63073">
        <ele>311</ele>
        <time>2022-10-13T09:09:15Z</time>
      </trkpt>
      <trkpt lat="45.97927" lon="4.63031">
        <ele>307</ele>
        <time>2022-10-13T09:09:45Z</time>
      </trkpt>
      <trkpt lat="45.97933" lon="4.62986">
        <ele>302</ele>
        <time>2022-10-13T09:10:14Z</time>
      </trkpt>
      <trkpt lat="45.9795" lon="4.62948">
        <ele>297</ele>
        <time>2022-10-13T09:10:41Z</time>
      </trkpt>
      <trkpt lat="45.97954" lon="4.62945">
        <ele>296</ele>
        <time>2022-10-13T09:10:45Z</time>
      </trkpt>
      <trkpt lat="45.97964" lon="4.6294">
        <ele>295</ele>
        <time>2022-10-13T09:10:54Z</time>
      </trkpt>
      <trkpt lat="45.97972" lon="4.62941">
        <ele>293</ele>
        <time>2022-10-13T09:11:02Z</time>
      </trkpt>
      <trkpt lat="45.97978" lon="4.6294">
        <ele>293</ele>
        <time>2022-10-13T09:11:06Z</time>
      </trkpt>
      <trkpt lat="45.97994" lon="4.62946">
        <ele>290</ele>
        <time>2022-10-13T09:11:20Z</time>
      </trkpt>
      <trkpt lat="45.98003" lon="4.6295">
        <ele>289</ele>
        <time>2022-10-13T09:11:29Z</time>
      </trkpt>
      <trkpt lat="45.98017" lon="4.62946">
        <ele>287</ele>
        <time>2022-10-13T09:11:42Z</time>
      </trkpt>
      <trkpt lat="45.98036" lon="4.6293">
        <ele>285</ele>
        <time>2022-10-13T09:11:59Z</time>
      </trkpt>
      <trkpt lat="45.98053" lon="4.62908">
        <ele>286</ele>
        <time>2022-10-13T09:12:18Z</time>
      </trkpt>
      <trkpt lat="45.98058" lon="4.62904">
        <ele>286</ele>
        <time>2022-10-13T09:13:05Z</time>
      </trkpt>
      <trkpt lat="45.98055" lon="4.62891">
        <ele>285</ele>
        <time>2022-10-13T09:13:57Z</time>
      </trkpt>
      <trkpt lat="45.98041" lon="4.6286">
        <ele>285</ele>
        <time>2022-10-13T09:14:17Z</time>
      </trkpt>
      <trkpt lat="45.98023" lon="4.62803">
        <ele>285</ele>
        <time>2022-10-13T09:14:51Z</time>
      </trkpt>
      <trkpt lat="45.98015" lon="4.62773">
        <ele>286</ele>
        <time>2022-10-13T09:15:08Z</time>
      </trkpt>
      <trkpt lat="45.98012" lon="4.62757">
        <ele>286</ele>
        <time>2022-10-13T09:15:17Z</time>
      </trkpt>
      <trkpt lat="45.98008" lon="4.62744">
        <ele>286</ele>
        <time>2022-10-13T09:15:25Z</time>
      </trkpt>
      <trkpt lat="45.98007" lon="4.62729">
        <ele>286</ele>
        <time>2022-10-13T09:15:35Z</time>
      </trkpt>
      <trkpt lat="45.98007" lon="4.62721">
        <ele>286</ele>
        <time>2022-10-13T09:15:40Z</time>
      </trkpt>
      <trkpt lat="45.98007" lon="4.62663">
        <ele>286</ele>
        <time>2022-10-13T09:16:14Z</time>
      </trkpt>
      <trkpt lat="45.98006" lon="4.62606">
        <ele>287</ele>
        <time>2022-10-13T09:16:48Z</time>
      </trkpt>
      <trkpt lat="45.98006" lon="4.62592">
        <ele>287</ele>
        <time>2022-10-13T09:16:57Z</time>
      </trkpt>
      <trkpt lat="45.98001" lon="4.6253">
        <ele>288</ele>
        <time>2022-10-13T09:17:32Z</time>
      </trkpt>
      <trkpt lat="45.97997" lon="4.62486">
        <ele>289</ele>
        <time>2022-10-13T09:17:58Z</time>
      </trkpt>
      <trkpt lat="45.97988" lon="4.6244">
        <ele>290</ele>
        <time>2022-10-13T09:18:26Z</time>
      </trkpt>
      <trkpt lat="45.97988" lon="4.62433">
        <ele>290</ele>
        <time>2022-10-13T09:18:30Z</time>
      </trkpt>
      <trkpt lat="45.97996" lon="4.62381">
        <ele>292</ele>
        <time>2022-10-13T09:19:01Z</time>
      </trkpt>
      <trkpt lat="45.98002" lon="4.62351">
        <ele>292</ele>
        <time>2022-10-13T09:19:22Z</time>
      </trkpt>
      <trkpt lat="45.98002" lon="4.623">
        <ele>293</ele>
        <time>2022-10-13T09:19:53Z</time>
      </trkpt>
      <trkpt lat="45.97996" lon="4.62279">
        <ele>294</ele>
        <time>2022-10-13T09:20:05Z</time>
      </trkpt>
      <trkpt lat="45.97991" lon="4.62266">
        <ele>294</ele>
        <time>2022-10-13T09:20:13Z</time>
      </trkpt>
      <trkpt lat="45.97968" lon="4.62227">
        <ele>295</ele>
        <time>2022-10-13T09:20:44Z</time>
      </trkpt>
      <trkpt lat="45.97943" lon="4.62185">
        <ele>296</ele>
        <time>2022-10-13T09:21:17Z</time>
      </trkpt>
      <trkpt lat="45.97929" lon="4.62158">
        <ele>297</ele>
        <time>2022-10-13T09:21:48Z</time>
      </trkpt>
      <trkpt lat="45.97917" lon="4.62129">
        <ele>298</ele>
        <time>2022-10-13T09:22:07Z</time>
      </trkpt>
      <trkpt lat="45.97911" lon="4.62109">
        <ele>298</ele>
        <time>2022-10-13T09:22:20Z</time>
      </trkpt>
      <trkpt lat="45.97904" lon="4.62094">
        <ele>299</ele>
        <time>2022-10-13T09:22:32Z</time>
      </trkpt>
      <trkpt lat="45.97898" lon="4.62062">
        <ele>300</ele>
        <time>2022-10-13T09:22:54Z</time>
      </trkpt>
      <trkpt lat="45.97893" lon="4.62009">
        <ele>301</ele>
        <time>2022-10-13T09:23:26Z</time>
      </trkpt>
      <trkpt lat="45.97882" lon="4.61959">
        <ele>302</ele>
        <time>2022-10-13T09:23:57Z</time>
      </trkpt>
      <trkpt lat="45.97877" lon="4.61928">
        <ele>303</ele>
        <time>2022-10-13T09:24:17Z</time>
      </trkpt>
      <trkpt lat="45.97877" lon="4.61931">
        <ele>303</ele>
        <time>2022-10-13T09:26:33Z</time>
      </trkpt>
      <trkpt lat="45.97875" lon="4.61933">
        <ele>303</ele>
        <time>2022-10-13T09:28:18Z</time>
      </trkpt>
      <trkpt lat="45.97871" lon="4.61919">
        <ele>303</ele>
        <time>2022-10-13T09:28:57Z</time>
      </trkpt>
      <trkpt lat="45.97869" lon="4.61896">
        <ele>304</ele>
        <time>2022-10-13T09:29:28Z</time>
      </trkpt>
      <trkpt lat="45.97865" lon="4.61878">
        <ele>305</ele>
        <time>2022-10-13T09:29:41Z</time>
      </trkpt>
      <trkpt lat="45.97856" lon="4.61853">
        <ele>305</ele>
        <time>2022-10-13T09:30:00Z</time>
      </trkpt>
      <trkpt lat="45.97853" lon="4.61844">
        <ele>305</ele>
        <time>2022-10-13T09:30:06Z</time>
      </trkpt>
      <trkpt lat="45.97851" lon="4.61837">
        <ele>305</ele>
        <time>2022-10-13T09:30:11Z</time>
      </trkpt>
      <trkpt lat="45.97842" lon="4.61813">
        <ele>306</ele>
        <time>2022-10-13T09:30:32Z</time>
      </trkpt>
      <trkpt lat="45.9783" lon="4.61788">
        <ele>307</ele>
        <time>2022-10-13T09:30:50Z</time>
      </trkpt>
      <trkpt lat="45.97827" lon="4.61799">
        <ele>307</ele>
        <time>2022-10-13T09:31:04Z</time>
      </trkpt>
      <trkpt lat="45.97823" lon="4.61818">
        <ele>308</ele>
        <time>2022-10-13T09:31:20Z</time>
      </trkpt>
      <trkpt lat="45.97824" lon="4.61836">
        <ele>309</ele>
        <time>2022-10-13T09:31:33Z</time>
      </trkpt>
      <trkpt lat="45.9782" lon="4.61842">
        <ele>310</ele>
        <time>2022-10-13T09:31:47Z</time>
      </trkpt>
      <trkpt lat="45.9782" lon="4.61867">
        <ele>313</ele>
        <time>2022-10-13T09:32:13Z</time>
      </trkpt>
      <trkpt lat="45.97819" lon="4.61875">
        <ele>315</ele>
        <time>2022-10-13T09:32:20Z</time>
      </trkpt>
      <trkpt lat="45.97815" lon="4.61884">
        <ele>316</ele>
        <time>2022-10-13T09:32:30Z</time>
      </trkpt>
      <trkpt lat="45.97814" lon="4.61895">
        <ele>318</ele>
        <time>2022-10-13T09:32:40Z</time>
      </trkpt>
      <trkpt lat="45.97805" lon="4.61924">
        <ele>323</ele>
        <time>2022-10-13T09:33:11Z</time>
      </trkpt>
      <trkpt lat="45.97796" lon="4.61956">
        <ele>328</ele>
        <time>2022-10-13T09:33:43Z</time>
      </trkpt>
      <trkpt lat="45.97791" lon="4.61972">
        <ele>330</ele>
        <time>2022-10-13T09:34:00Z</time>
      </trkpt>
      <trkpt lat="45.97787" lon="4.61981">
        <ele>332</ele>
        <time>2022-10-13T09:34:10Z</time>
      </trkpt>
      <trkpt lat="45.97784" lon="4.61991">
        <ele>334</ele>
        <time>2022-10-13T09:34:20Z</time>
      </trkpt>
      <trkpt lat="45.97777" lon="4.62011">
        <ele>337</ele>
        <time>2022-10-13T09:34:40Z</time>
      </trkpt>
      <trkpt lat="45.97775" lon="4.62021">
        <ele>338</ele>
        <time>2022-10-13T09:34:49Z</time>
      </trkpt>
      <trkpt lat="45.97774" lon="4.6203">
        <ele>340</ele>
        <time>2022-10-13T09:34:59Z</time>
      </trkpt>
      <trkpt lat="45.97771" lon="4.62038">
        <ele>342</ele>
        <time>2022-10-13T09:35:09Z</time>
      </trkpt>
      <trkpt lat="45.97765" lon="4.62081">
        <ele>347</ele>
        <time>2022-10-13T09:35:46Z</time>
      </trkpt>
      <trkpt lat="45.97762" lon="4.62121">
        <ele>350</ele>
        <time>2022-10-13T09:36:16Z</time>
      </trkpt>
      <trkpt lat="45.97761" lon="4.62128">
        <ele>351</ele>
        <time>2022-10-13T09:36:21Z</time>
      </trkpt>
      <trkpt lat="45.97759" lon="4.62135">
        <ele>351</ele>
        <time>2022-10-13T09:36:26Z</time>
      </trkpt>
      <trkpt lat="45.97758" lon="4.62142">
        <ele>352</ele>
        <time>2022-10-13T09:36:31Z</time>
      </trkpt>
      <trkpt lat="45.97744" lon="4.62166">
        <ele>355</ele>
        <time>2022-10-13T09:36:55Z</time>
      </trkpt>
      <trkpt lat="45.97733" lon="4.6218">
        <ele>358</ele>
        <time>2022-10-13T09:37:12Z</time>
      </trkpt>
      <trkpt lat="45.97702" lon="4.62204">
        <ele>363</ele>
        <time>2022-10-13T09:37:51Z</time>
      </trkpt>
      <trkpt lat="45.97687" lon="4.62217">
        <ele>364</ele>
        <time>2022-10-13T09:38:09Z</time>
      </trkpt>
      <trkpt lat="45.97678" lon="4.62223">
        <ele>365</ele>
        <time>2022-10-13T09:38:19Z</time>
      </trkpt>
      <trkpt lat="45.97674" lon="4.62226">
        <ele>365</ele>
        <time>2022-10-13T09:38:24Z</time>
      </trkpt>
      <trkpt lat="45.97668" lon="4.62229">
        <ele>366</ele>
        <time>2022-10-13T09:38:29Z</time>
      </trkpt>
      <trkpt lat="45.97635" lon="4.62252">
        <ele>367</ele>
        <time>2022-10-13T09:39:02Z</time>
      </trkpt>
      <trkpt lat="45.9762" lon="4.62262">
        <ele>367</ele>
        <time>2022-10-13T09:39:19Z</time>
      </trkpt>
      <trkpt lat="45.97614" lon="4.6227">
        <ele>366</ele>
        <time>2022-10-13T09:40:52Z</time>
      </trkpt>
      <trkpt lat="45.97607" lon="4.62277">
        <ele>366</ele>
        <time>2022-10-13T09:41:02Z</time>
      </trkpt>
      <trkpt lat="45.97577" lon="4.6231">
        <ele>363</ele>
        <time>2022-10-13T09:41:35Z</time>
      </trkpt>
      <trkpt lat="45.97566" lon="4.62323">
        <ele>362</ele>
        <time>2022-10-13T09:41:47Z</time>
      </trkpt>
      <trkpt lat="45.97543" lon="4.62347">
        <ele>360</ele>
        <time>2022-10-13T09:42:12Z</time>
      </trkpt>
      <trkpt lat="45.97517" lon="4.62392">
        <ele>358</ele>
        <time>2022-10-13T09:42:44Z</time>
      </trkpt>
      <trkpt lat="45.97513" lon="4.62398">
        <ele>358</ele>
        <time>2022-10-13T09:42:49Z</time>
      </trkpt>
      <trkpt lat="45.97511" lon="4.62405">
        <ele>358</ele>
        <time>2022-10-13T09:42:54Z</time>
      </trkpt>
      <trkpt lat="45.97494" lon="4.62437">
        <ele>357</ele>
        <time>2022-10-13T09:43:18Z</time>
      </trkpt>
      <trkpt lat="45.97491" lon="4.62443">
        <ele>357</ele>
        <time>2022-10-13T09:43:23Z</time>
      </trkpt>
      <trkpt lat="45.97486" lon="4.62455">
        <ele>357</ele>
        <time>2022-10-13T09:43:31Z</time>
      </trkpt>
      <trkpt lat="45.97464" lon="4.62497">
        <ele>358</ele>
        <time>2022-10-13T09:44:05Z</time>
      </trkpt>
      <trkpt lat="45.97443" lon="4.62537">
        <ele>358</ele>
        <time>2022-10-13T09:44:35Z</time>
      </trkpt>
      <trkpt lat="45.97438" lon="4.6255">
        <ele>358</ele>
        <time>2022-10-13T09:44:45Z</time>
      </trkpt>
      <trkpt lat="45.97434" lon="4.62555">
        <ele>358</ele>
        <time>2022-10-13T09:44:50Z</time>
      </trkpt>
      <trkpt lat="45.97431" lon="4.62562">
        <ele>358</ele>
        <time>2022-10-13T09:44:54Z</time>
      </trkpt>
      <trkpt lat="45.97426" lon="4.62574">
        <ele>359</ele>
        <time>2022-10-13T09:45:02Z</time>
      </trkpt>
      <trkpt lat="45.97413" lon="4.62597">
        <ele>358</ele>
        <time>2022-10-13T09:45:21Z</time>
      </trkpt>
      <trkpt lat="45.9741" lon="4.62602">
        <ele>358</ele>
        <time>2022-10-13T09:45:25Z</time>
      </trkpt>
      <trkpt lat="45.97402" lon="4.6262">
        <ele>359</ele>
        <time>2022-10-13T09:45:38Z</time>
      </trkpt>
      <trkpt lat="45.97381" lon="4.62659">
        <ele>360</ele>
        <time>2022-10-13T09:46:10Z</time>
      </trkpt>
      <trkpt lat="45.97359" lon="4.627">
        <ele>360</ele>
        <time>2022-10-13T09:46:43Z</time>
      </trkpt>
      <trkpt lat="45.97336" lon="4.62744">
        <ele>360</ele>
        <time>2022-10-13T09:47:16Z</time>
      </trkpt>
      <trkpt lat="45.97332" lon="4.62748">
        <ele>360</ele>
        <time>2022-10-13T09:47:20Z</time>
      </trkpt>
      <trkpt lat="45.97322" lon="4.62773">
        <ele>359</ele>
        <time>2022-10-13T09:47:38Z</time>
      </trkpt>
      <trkpt lat="45.97316" lon="4.628">
        <ele>358</ele>
        <time>2022-10-13T09:47:58Z</time>
      </trkpt>
      <trkpt lat="45.97312" lon="4.62848">
        <ele>356</ele>
        <time>2022-10-13T09:48:30Z</time>
      </trkpt>
      <trkpt lat="45.97307" lon="4.62851">
        <ele>356</ele>
        <time>2022-10-13T09:48:34Z</time>
      </trkpt>
      <trkpt lat="45.97301" lon="4.62849">
        <ele>356</ele>
        <time>2022-10-13T09:49:26Z</time>
      </trkpt>
      <trkpt lat="45.97297" lon="4.62841">
        <ele>356</ele>
        <time>2022-10-13T09:49:57Z</time>
      </trkpt>
      <trkpt lat="45.97269" lon="4.62807">
        <ele>358</ele>
        <time>2022-10-13T09:50:29Z</time>
      </trkpt>
      <trkpt lat="45.97246" lon="4.62765">
        <ele>361</ele>
        <time>2022-10-13T09:51:03Z</time>
      </trkpt>
      <trkpt lat="45.97232" lon="4.62733">
        <ele>362</ele>
        <time>2022-10-13T09:51:27Z</time>
      </trkpt>
      <trkpt lat="45.97229" lon="4.6272">
        <ele>363</ele>
        <time>2022-10-13T09:51:37Z</time>
      </trkpt>
      <trkpt lat="45.97226" lon="4.62714">
        <ele>363</ele>
        <time>2022-10-13T09:51:41Z</time>
      </trkpt>
      <trkpt lat="45.97213" lon="4.62668">
        <ele>366</ele>
        <time>2022-10-13T09:52:12Z</time>
      </trkpt>
      <trkpt lat="45.97201" lon="4.62632">
        <ele>368</ele>
        <time>2022-10-13T09:52:37Z</time>
      </trkpt>
      <trkpt lat="45.97195" lon="4.6261">
        <ele>370</ele>
        <time>2022-10-13T09:52:52Z</time>
      </trkpt>
      <trkpt lat="45.97187" lon="4.62588">
        <ele>372</ele>
        <time>2022-10-13T09:53:08Z</time>
      </trkpt>
      <trkpt lat="45.97184" lon="4.62574">
        <ele>373</ele>
        <time>2022-10-13T09:53:17Z</time>
      </trkpt>
      <trkpt lat="45.97181" lon="4.62524">
        <ele>377</ele>
        <time>2022-10-13T09:53:52Z</time>
      </trkpt>
      <trkpt lat="45.9718" lon="4.62492">
        <ele>380</ele>
        <time>2022-10-13T09:54:14Z</time>
      </trkpt>
      <trkpt lat="45.97183" lon="4.62454">
        <ele>382</ele>
        <time>2022-10-13T09:54:41Z</time>
      </trkpt>
      <trkpt lat="45.97192" lon="4.62414">
        <ele>385</ele>
        <time>2022-10-13T09:55:14Z</time>
      </trkpt>
      <trkpt lat="45.97192" lon="4.62408">
        <ele>386</ele>
        <time>2022-10-13T09:55:19Z</time>
      </trkpt>
      <trkpt lat="45.97187" lon="4.62387">
        <ele>387</ele>
        <time>2022-10-13T09:55:34Z</time>
      </trkpt>
      <trkpt lat="45.97187" lon="4.6238">
        <ele>387</ele>
        <time>2022-10-13T09:55:39Z</time>
      </trkpt>
      <trkpt lat="45.97182" lon="4.62361">
        <ele>388</ele>
        <time>2022-10-13T09:55:52Z</time>
      </trkpt>
      <trkpt lat="45.97182" lon="4.62351">
        <ele>389</ele>
        <time>2022-10-13T09:56:00Z</time>
      </trkpt>
      <trkpt lat="45.97186" lon="4.62329">
        <ele>390</ele>
        <time>2022-10-13T09:56:21Z</time>
      </trkpt>
      <trkpt lat="45.9719" lon="4.62314">
        <ele>391</ele>
        <time>2022-10-13T09:56:31Z</time>
      </trkpt>
      <trkpt lat="45.97193" lon="4.62306">
        <ele>391</ele>
        <time>2022-10-13T09:56:36Z</time>
      </trkpt>
      <trkpt lat="45.97204" lon="4.62267">
        <ele>393</ele>
        <time>2022-10-13T09:57:00Z</time>
      </trkpt>
      <trkpt lat="45.9721" lon="4.62256">
        <ele>393</ele>
        <time>2022-10-13T09:57:09Z</time>
      </trkpt>
      <trkpt lat="45.97214" lon="4.6225">
        <ele>393</ele>
        <time>2022-10-13T09:57:14Z</time>
      </trkpt>
      <trkpt lat="45.9722" lon="4.62239">
        <ele>393</ele>
        <time>2022-10-13T09:57:24Z</time>
      </trkpt>
      <trkpt lat="45.97223" lon="4.6223">
        <ele>393</ele>
        <time>2022-10-13T09:57:31Z</time>
      </trkpt>
      <trkpt lat="45.97223" lon="4.62223">
        <ele>394</ele>
        <time>2022-10-13T09:57:35Z</time>
      </trkpt>
      <trkpt lat="45.97219" lon="4.62214">
        <ele>394</ele>
        <time>2022-10-13T09:57:43Z</time>
      </trkpt>
      <trkpt lat="45.97228" lon="4.62208">
        <ele>394</ele>
        <time>2022-10-13T09:58:12Z</time>
      </trkpt>
      <trkpt lat="45.97233" lon="4.62214">
        <ele>393</ele>
        <time>2022-10-13T09:58:20Z</time>
      </trkpt>
      <trkpt lat="45.97232" lon="4.62216">
        <ele>393</ele>
        <time>2022-10-13T09:58:52Z</time>
      </trkpt>
      <trkpt lat="45.97224" lon="4.62213">
        <ele>393</ele>
        <time>2022-10-13T09:59:01Z</time>
      </trkpt>
      <trkpt lat="45.97208" lon="4.62178">
        <ele>394</ele>
        <time>2022-10-13T09:59:23Z</time>
      </trkpt>
      <trkpt lat="45.97189" lon="4.62152">
        <ele>394</ele>
        <time>2022-10-13T09:59:43Z</time>
      </trkpt>
      <trkpt lat="45.97172" lon="4.62109">
        <ele>395</ele>
        <time>2022-10-13T10:00:10Z</time>
      </trkpt>
      <trkpt lat="45.9717" lon="4.62095">
        <ele>395</ele>
        <time>2022-10-13T10:00:18Z</time>
      </trkpt>
      <trkpt lat="45.97167" lon="4.62058">
        <ele>397</ele>
        <time>2022-10-13T10:00:43Z</time>
      </trkpt>
      <trkpt lat="45.97162" lon="4.6201">
        <ele>398</ele>
        <time>2022-10-13T10:01:14Z</time>
      </trkpt>
      <trkpt lat="45.9716" lon="4.61988">
        <ele>398</ele>
        <time>2022-10-13T10:01:28Z</time>
      </trkpt>
      <trkpt lat="45.97161" lon="4.6198">
        <ele>398</ele>
        <time>2022-10-13T10:01:33Z</time>
      </trkpt>
      <trkpt lat="45.9716" lon="4.61963">
        <ele>398</ele>
        <time>2022-10-13T10:01:50Z</time>
      </trkpt>
      <trkpt lat="45.97161" lon="4.61949">
        <ele>398</ele>
        <time>2022-10-13T10:01:58Z</time>
      </trkpt>
      <trkpt lat="45.97158" lon="4.61893">
        <ele>399</ele>
        <time>2022-10-13T10:02:30Z</time>
      </trkpt>
      <trkpt lat="45.97162" lon="4.61846">
        <ele>399</ele>
        <time>2022-10-13T10:03:01Z</time>
      </trkpt>
      <trkpt lat="45.97169" lon="4.61796">
        <ele>400</ele>
        <time>2022-10-13T10:03:34Z</time>
      </trkpt>
      <trkpt lat="45.97173" lon="4.61744">
        <ele>401</ele>
        <time>2022-10-13T10:04:05Z</time>
      </trkpt>
      <trkpt lat="45.97174" lon="4.6173">
        <ele>401</ele>
        <time>2022-10-13T10:04:13Z</time>
      </trkpt>
      <trkpt lat="45.97176" lon="4.61687">
        <ele>402</ele>
        <time>2022-10-13T10:04:39Z</time>
      </trkpt>
      <trkpt lat="45.97183" lon="4.61636">
        <ele>404</ele>
        <time>2022-10-13T10:05:10Z</time>
      </trkpt>
      <trkpt lat="45.97187" lon="4.61608">
        <ele>405</ele>
        <time>2022-10-13T10:05:27Z</time>
      </trkpt>
      <trkpt lat="45.97191" lon="4.61602">
        <ele>405</ele>
        <time>2022-10-13T10:05:32Z</time>
      </trkpt>
      <trkpt lat="45.97221" lon="4.61569">
        <ele>409</ele>
        <time>2022-10-13T10:06:05Z</time>
      </trkpt>
      <trkpt lat="45.97233" lon="4.61555">
        <ele>410</ele>
        <time>2022-10-13T10:06:17Z</time>
      </trkpt>
      <trkpt lat="45.97242" lon="4.61532">
        <ele>411</ele>
        <time>2022-10-13T10:06:33Z</time>
      </trkpt>
      <trkpt lat="45.97244" lon="4.61525">
        <ele>412</ele>
        <time>2022-10-13T10:06:38Z</time>
      </trkpt>
      <trkpt lat="45.97248" lon="4.6152">
        <ele>412</ele>
        <time>2022-10-13T10:06:43Z</time>
      </trkpt>
      <trkpt lat="45.97249" lon="4.6151">
        <ele>412</ele>
        <time>2022-10-13T10:06:50Z</time>
      </trkpt>
      <trkpt lat="45.97255" lon="4.61499">
        <ele>412</ele>
        <time>2022-10-13T10:06:58Z</time>
      </trkpt>
      <trkpt lat="45.97261" lon="4.61464">
        <ele>412</ele>
        <time>2022-10-13T10:07:18Z</time>
      </trkpt>
      <trkpt lat="45.97265" lon="4.61422">
        <ele>411</ele>
        <time>2022-10-13T10:07:42Z</time>
      </trkpt>
      <trkpt lat="45.97269" lon="4.61391">
        <ele>409</ele>
        <time>2022-10-13T10:08:00Z</time>
      </trkpt>
      <trkpt lat="45.97271" lon="4.61333">
        <ele>407</ele>
        <time>2022-10-13T10:08:32Z</time>
      </trkpt>
      <trkpt lat="45.97278" lon="4.61289">
        <ele>406</ele>
        <time>2022-10-13T10:08:58Z</time>
      </trkpt>
      <trkpt lat="45.97278" lon="4.61282">
        <ele>406</ele>
        <time>2022-10-13T10:09:03Z</time>
      </trkpt>
      <trkpt lat="45.97279" lon="4.61274">
        <ele>405</ele>
        <time>2022-10-13T10:09:07Z</time>
      </trkpt>
      <trkpt lat="45.97279" lon="4.61251">
        <ele>404</ele>
        <time>2022-10-13T10:09:21Z</time>
      </trkpt>
      <trkpt lat="45.97275" lon="4.61204">
        <ele>404</ele>
        <time>2022-10-13T10:09:56Z</time>
      </trkpt>
      <trkpt lat="45.97274" lon="4.61196">
        <ele>405</ele>
        <time>2022-10-13T10:10:01Z</time>
      </trkpt>
      <trkpt lat="45.97274" lon="4.61187">
        <ele>405</ele>
        <time>2022-10-13T10:10:06Z</time>
      </trkpt>
      <trkpt lat="45.97271" lon="4.61176">
        <ele>406</ele>
        <time>2022-10-13T10:10:14Z</time>
      </trkpt>
      <trkpt lat="45.97266" lon="4.61171">
        <ele>406</ele>
        <time>2022-10-13T10:10:21Z</time>
      </trkpt>
      <trkpt lat="45.97257" lon="4.61159">
        <ele>407</ele>
        <time>2022-10-13T10:10:32Z</time>
      </trkpt>
      <trkpt lat="45.97252" lon="4.61155">
        <ele>407</ele>
        <time>2022-10-13T10:10:36Z</time>
      </trkpt>
      <trkpt lat="45.97244" lon="4.61147">
        <ele>406</ele>
        <time>2022-10-13T10:10:45Z</time>
      </trkpt>
      <trkpt lat="45.97229" lon="4.61127">
        <ele>404</ele>
        <time>2022-10-13T10:11:03Z</time>
      </trkpt>
      <trkpt lat="45.97221" lon="4.61118">
        <ele>403</ele>
        <time>2022-10-13T10:11:11Z</time>
      </trkpt>
      <trkpt lat="45.97205" lon="4.61093">
        <ele>401</ele>
        <time>2022-10-13T10:11:34Z</time>
      </trkpt>
      <trkpt lat="45.972" lon="4.61088">
        <ele>400</ele>
        <time>2022-10-13T10:12:16Z</time>
      </trkpt>
      <trkpt lat="45.97196" lon="4.61081">
        <ele>400</ele>
        <time>2022-10-13T10:12:26Z</time>
      </trkpt>
      <trkpt lat="45.97192" lon="4.6107">
        <ele>398</ele>
        <time>2022-10-13T10:13:15Z</time>
      </trkpt>
      <trkpt lat="45.97188" lon="4.61057">
        <ele>398</ele>
        <time>2022-10-13T10:13:24Z</time>
      </trkpt>
      <trkpt lat="45.97171" lon="4.6103">
        <ele>394</ele>
        <time>2022-10-13T10:13:49Z</time>
      </trkpt>
      <trkpt lat="45.97172" lon="4.61023">
        <ele>393</ele>
        <time>2022-10-13T10:14:06Z</time>
      </trkpt>
      <trkpt lat="45.97174" lon="4.60993">
        <ele>397</ele>
        <time>2022-10-13T10:14:36Z</time>
      </trkpt>
      <trkpt lat="45.97175" lon="4.60963">
        <ele>402</ele>
        <time>2022-10-13T10:15:06Z</time>
      </trkpt>
      <trkpt lat="45.97174" lon="4.60954">
        <ele>404</ele>
        <time>2022-10-13T10:15:16Z</time>
      </trkpt>
      <trkpt lat="45.97179" lon="4.60937">
        <ele>408</ele>
        <time>2022-10-13T10:15:44Z</time>
      </trkpt>
      <trkpt lat="45.97184" lon="4.60926">
        <ele>411</ele>
        <time>2022-10-13T10:15:59Z</time>
      </trkpt>
      <trkpt lat="45.97188" lon="4.60916">
        <ele>413</ele>
        <time>2022-10-13T10:16:11Z</time>
      </trkpt>
      <trkpt lat="45.97193" lon="4.60901">
        <ele>415</ele>
        <time>2022-10-13T10:16:29Z</time>
      </trkpt>
      <trkpt lat="45.97195" lon="4.60894">
        <ele>415</ele>
        <time>2022-10-13T10:16:33Z</time>
      </trkpt>
      <trkpt lat="45.97198" lon="4.60878">
        <ele>414</ele>
        <time>2022-10-13T10:16:47Z</time>
      </trkpt>
      <trkpt lat="45.97203" lon="4.60865">
        <ele>414</ele>
        <time>2022-10-13T10:16:57Z</time>
      </trkpt>
      <trkpt lat="45.97212" lon="4.60852">
        <ele>414</ele>
        <time>2022-10-13T10:17:08Z</time>
      </trkpt>
      <trkpt lat="45.9724" lon="4.60812">
        <ele>413</ele>
        <time>2022-10-13T10:17:42Z</time>
      </trkpt>
      <trkpt lat="45.97245" lon="4.60808">
        <ele>413</ele>
        <time>2022-10-13T10:17:47Z</time>
      </trkpt>
      <trkpt lat="45.97257" lon="4.60795">
        <ele>411</ele>
        <time>2022-10-13T10:17:59Z</time>
      </trkpt>
      <trkpt lat="45.97266" lon="4.60787">
        <ele>411</ele>
        <time>2022-10-13T10:18:25Z</time>
      </trkpt>
      <trkpt lat="45.9727" lon="4.60781">
        <ele>410</ele>
        <time>2022-10-13T10:18:31Z</time>
      </trkpt>
      <trkpt lat="45.97274" lon="4.60776">
        <ele>410</ele>
        <time>2022-10-13T10:18:36Z</time>
      </trkpt>
      <trkpt lat="45.97285" lon="4.60768">
        <ele>409</ele>
        <time>2022-10-13T10:18:48Z</time>
      </trkpt>
      <trkpt lat="45.97306" lon="4.60736">
        <ele>405</ele>
        <time>2022-10-13T10:19:14Z</time>
      </trkpt>
      <trkpt lat="45.97334" lon="4.60689">
        <ele>403</ele>
        <time>2022-10-13T10:19:51Z</time>
      </trkpt>
      <trkpt lat="45.97339" lon="4.60677">
        <ele>402</ele>
        <time>2022-10-13T10:19:59Z</time>
      </trkpt>
      <trkpt lat="45.97343" lon="4.60672">
        <ele>402</ele>
        <time>2022-10-13T10:20:03Z</time>
      </trkpt>
      <trkpt lat="45.97353" lon="4.60658">
        <ele>401</ele>
        <time>2022-10-13T10:20:15Z</time>
      </trkpt>
      <trkpt lat="45.97362" lon="4.6065">
        <ele>400</ele>
        <time>2022-10-13T10:20:25Z</time>
      </trkpt>
      <trkpt lat="45.97367" lon="4.60649">
        <ele>400</ele>
        <time>2022-10-13T10:20:29Z</time>
      </trkpt>
      <trkpt lat="45.97372" lon="4.60644">
        <ele>400</ele>
        <time>2022-10-13T10:20:33Z</time>
      </trkpt>
      <trkpt lat="45.9738" lon="4.60638">
        <ele>400</ele>
        <time>2022-10-13T10:20:42Z</time>
      </trkpt>
      <trkpt lat="45.97413" lon="4.60615">
        <ele>399</ele>
        <time>2022-10-13T10:21:26Z</time>
      </trkpt>
      <trkpt lat="45.97417" lon="4.60612">
        <ele>398</ele>
        <time>2022-10-13T10:21:33Z</time>
      </trkpt>
      <trkpt lat="45.97422" lon="4.60611">
        <ele>398</ele>
        <time>2022-10-13T10:21:43Z</time>
      </trkpt>
      <trkpt lat="45.97432" lon="4.60605">
        <ele>398</ele>
        <time>2022-10-13T10:21:52Z</time>
      </trkpt>
      <trkpt lat="45.9744" lon="4.60611">
        <ele>399</ele>
        <time>2022-10-13T10:22:01Z</time>
      </trkpt>
      <trkpt lat="45.97466" lon="4.60645">
        <ele>400</ele>
        <time>2022-10-13T10:22:32Z</time>
      </trkpt>
      <trkpt lat="45.97472" lon="4.60657">
        <ele>400</ele>
        <time>2022-10-13T10:22:40Z</time>
      </trkpt>
      <trkpt lat="45.97477" lon="4.60661">
        <ele>401</ele>
        <time>2022-10-13T10:22:45Z</time>
      </trkpt>
      <trkpt lat="45.97489" lon="4.60676">
        <ele>401</ele>
        <time>2022-10-13T10:22:57Z</time>
      </trkpt>
      <trkpt lat="45.97508" lon="4.60689">
        <ele>401</ele>
        <time>2022-10-13T10:23:12Z</time>
      </trkpt>
      <trkpt lat="45.97511" lon="4.60694">
        <ele>401</ele>
        <time>2022-10-13T10:23:16Z</time>
      </trkpt>
      <trkpt lat="45.97528" lon="4.6071">
        <ele>401</ele>
        <time>2022-10-13T10:23:32Z</time>
      </trkpt>
      <trkpt lat="45.97538" lon="4.6071">
        <ele>400</ele>
        <time>2022-10-13T10:23:44Z</time>
      </trkpt>
      <trkpt lat="45.97544" lon="4.60708">
        <ele>400</ele>
        <time>2022-10-13T10:23:50Z</time>
      </trkpt>
      <trkpt lat="45.97547" lon="4.60715">
        <ele>399</ele>
        <time>2022-10-13T10:23:59Z</time>
      </trkpt>
      <trkpt lat="45.97532" lon="4.60729">
        <ele>396</ele>
        <time>2022-10-13T10:24:16Z</time>
      </trkpt>
      <trkpt lat="45.97519" lon="4.60747">
        <ele>393</ele>
        <time>2022-10-13T10:24:36Z</time>
      </trkpt>
      <trkpt lat="45.97523" lon="4.60758">
        <ele>392</ele>
        <time>2022-10-13T10:24:46Z</time>
      </trkpt>
      <trkpt lat="45.97533" lon="4.60783">
        <ele>388</ele>
        <time>2022-10-13T10:25:10Z</time>
      </trkpt>
      <trkpt lat="45.97537" lon="4.60788">
        <ele>388</ele>
        <time>2022-10-13T10:25:15Z</time>
      </trkpt>
      <trkpt lat="45.97542" lon="4.608">
        <ele>386</ele>
        <time>2022-10-13T10:25:26Z</time>
      </trkpt>
      <trkpt lat="45.97543" lon="4.6081">
        <ele>385</ele>
        <time>2022-10-13T10:25:36Z</time>
      </trkpt>
      <trkpt lat="45.97546" lon="4.60817">
        <ele>383</ele>
        <time>2022-10-13T10:25:42Z</time>
      </trkpt>
      <trkpt lat="45.97547" lon="4.60827">
        <ele>382</ele>
        <time>2022-10-13T10:25:50Z</time>
      </trkpt>
      <trkpt lat="45.97547" lon="4.60836">
        <ele>382</ele>
        <time>2022-10-13T10:25:57Z</time>
      </trkpt>
      <trkpt lat="45.97554" lon="4.60876">
        <ele>376</ele>
        <time>2022-10-13T10:26:30Z</time>
      </trkpt>
      <trkpt lat="45.97567" lon="4.60918">
        <ele>371</ele>
        <time>2022-10-13T10:27:04Z</time>
      </trkpt>
      <trkpt lat="45.97578" lon="4.60967">
        <ele>367</ele>
        <time>2022-10-13T10:27:40Z</time>
      </trkpt>
      <trkpt lat="45.9759" lon="4.61">
        <ele>366</ele>
        <time>2022-10-13T10:28:02Z</time>
      </trkpt>
      <trkpt lat="45.97599" lon="4.61031">
        <ele>365</ele>
        <time>2022-10-13T10:28:22Z</time>
      </trkpt>
      <trkpt lat="45.97604" lon="4.61045">
        <ele>365</ele>
        <time>2022-10-13T10:28:32Z</time>
      </trkpt>
      <trkpt lat="45.97614" lon="4.61093">
        <ele>363</ele>
        <time>2022-10-13T10:29:03Z</time>
      </trkpt>
      <trkpt lat="45.97614" lon="4.61102">
        <ele>363</ele>
        <time>2022-10-13T10:29:10Z</time>
      </trkpt>
      <trkpt lat="45.97609" lon="4.61106">
        <ele>363</ele>
        <time>2022-10-13T10:29:28Z</time>
      </trkpt>
      <trkpt lat="45.9761" lon="4.61116">
        <ele>362</ele>
        <time>2022-10-13T10:29:48Z</time>
      </trkpt>
      <trkpt lat="45.97612" lon="4.61125">
        <ele>361</ele>
        <time>2022-10-13T10:29:58Z</time>
      </trkpt>
      <trkpt lat="45.97624" lon="4.61134">
        <ele>359</ele>
        <time>2022-10-13T10:30:18Z</time>
      </trkpt>
      <trkpt lat="45.97629" lon="4.61138">
        <ele>358</ele>
        <time>2022-10-13T10:30:24Z</time>
      </trkpt>
      <trkpt lat="45.97658" lon="4.61146">
        <ele>353</ele>
        <time>2022-10-13T10:30:54Z</time>
      </trkpt>
      <trkpt lat="45.97664" lon="4.61151">
        <ele>351</ele>
        <time>2022-10-13T10:31:01Z</time>
      </trkpt>
      <trkpt lat="45.97668" lon="4.61158">
        <ele>350</ele>
        <time>2022-10-13T10:31:08Z</time>
      </trkpt>
      <trkpt lat="45.97681" lon="4.61168">
        <ele>345</ele>
        <time>2022-10-13T10:31:34Z</time>
      </trkpt>
      <trkpt lat="45.97698" lon="4.61175">
        <ele>342</ele>
        <time>2022-10-13T10:31:56Z</time>
      </trkpt>
      <trkpt lat="45.97703" lon="4.6116">
        <ele>342</ele>
        <time>2022-10-13T10:33:18Z</time>
      </trkpt>
      <trkpt lat="45.97706" lon="4.6115">
        <ele>341</ele>
        <time>2022-10-13T10:33:26Z</time>
      </trkpt>
      <trkpt lat="45.97706" lon="4.61136">
        <ele>340</ele>
        <time>2022-10-13T10:33:35Z</time>
      </trkpt>
      <trkpt lat="45.97722" lon="4.61085">
        <ele>336</ele>
        <time>2022-10-13T10:34:08Z</time>
      </trkpt>
      <trkpt lat="45.97737" lon="4.61034">
        <ele>333</ele>
        <time>2022-10-13T10:34:38Z</time>
      </trkpt>
      <trkpt lat="45.97741" lon="4.61024">
        <ele>332</ele>
        <time>2022-10-13T10:34:44Z</time>
      </trkpt>
      <trkpt lat="45.97752" lon="4.61002">
        <ele>330</ele>
        <time>2022-10-13T10:35:02Z</time>
      </trkpt>
      <trkpt lat="45.97755" lon="4.60986">
        <ele>330</ele>
        <time>2022-10-13T10:35:12Z</time>
      </trkpt>
      <trkpt lat="45.97764" lon="4.60967">
        <ele>330</ele>
        <time>2022-10-13T10:35:23Z</time>
      </trkpt>
      <trkpt lat="45.9777" lon="4.60932">
        <ele>330</ele>
        <time>2022-10-13T10:35:44Z</time>
      </trkpt>
      <trkpt lat="45.97775" lon="4.60926">
        <ele>330</ele>
        <time>2022-10-13T10:35:47Z</time>
      </trkpt>
      <trkpt lat="45.97791" lon="4.6091">
        <ele>330</ele>
        <time>2022-10-13T10:36:03Z</time>
      </trkpt>
      <trkpt lat="45.97795" lon="4.60896">
        <ele>330</ele>
        <time>2022-10-13T10:36:14Z</time>
      </trkpt>
      <trkpt lat="45.97799" lon="4.60889">
        <ele>331</ele>
        <time>2022-10-13T10:36:18Z</time>
      </trkpt>
      <trkpt lat="45.97809" lon="4.60882">
        <ele>331</ele>
        <time>2022-10-13T10:36:26Z</time>
      </trkpt>
      <trkpt lat="45.97814" lon="4.60882">
        <ele>331</ele>
        <time>2022-10-13T10:36:31Z</time>
      </trkpt>
      <trkpt lat="45.97826" lon="4.60885">
        <ele>332</ele>
        <time>2022-10-13T10:36:42Z</time>
      </trkpt>
      <trkpt lat="45.97841" lon="4.60878">
        <ele>333</ele>
        <time>2022-10-13T10:36:57Z</time>
      </trkpt>
      <trkpt lat="45.97845" lon="4.60875">
        <ele>333</ele>
        <time>2022-10-13T10:37:02Z</time>
      </trkpt>
      <trkpt lat="45.9785" lon="4.60873">
        <ele>334</ele>
        <time>2022-10-13T10:37:09Z</time>
      </trkpt>
      <trkpt lat="45.97856" lon="4.60872">
        <ele>334</ele>
        <time>2022-10-13T10:37:19Z</time>
      </trkpt>
      <trkpt lat="45.97877" lon="4.60897">
        <ele>337</ele>
        <time>2022-10-13T10:37:46Z</time>
      </trkpt>
      <trkpt lat="45.9788" lon="4.60903">
        <ele>337</ele>
        <time>2022-10-13T10:37:51Z</time>
      </trkpt>
      <trkpt lat="45.97888" lon="4.60944">
        <ele>341</ele>
        <time>2022-10-13T10:38:21Z</time>
      </trkpt>
      <trkpt lat="45.97892" lon="4.60951">
        <ele>343</ele>
        <time>2022-10-13T10:38:30Z</time>
      </trkpt>
      <trkpt lat="45.97909" lon="4.60949">
        <ele>345</ele>
        <time>2022-10-13T10:38:50Z</time>
      </trkpt>
      <trkpt lat="45.97913" lon="4.60945">
        <ele>346</ele>
        <time>2022-10-13T10:38:56Z</time>
      </trkpt>
      <trkpt lat="45.9792" lon="4.60941">
        <ele>347</ele>
        <time>2022-10-13T10:39:06Z</time>
      </trkpt>
      <trkpt lat="45.97923" lon="4.60937">
        <ele>348</ele>
        <time>2022-10-13T10:39:26Z</time>
      </trkpt>
      <trkpt lat="45.97929" lon="4.60935">
        <ele>348</ele>
        <time>2022-10-13T10:40:21Z</time>
      </trkpt>
      <trkpt lat="45.97936" lon="4.6093">
        <ele>349</ele>
        <time>2022-10-13T10:40:49Z</time>
      </trkpt>
      <trkpt lat="45.97959" lon="4.60906">
        <ele>352</ele>
        <time>2022-10-13T10:41:19Z</time>
      </trkpt>
      <trkpt lat="45.97968" lon="4.60885">
        <ele>354</ele>
        <time>2022-10-13T10:41:39Z</time>
      </trkpt>
      <trkpt lat="45.97976" lon="4.6085">
        <ele>357</ele>
        <time>2022-10-13T10:42:08Z</time>
      </trkpt>
      <trkpt lat="45.97976" lon="4.60826">
        <ele>359</ele>
        <time>2022-10-13T10:42:25Z</time>
      </trkpt>
      <trkpt lat="45.97978" lon="4.60816">
        <ele>360</ele>
        <time>2022-10-13T10:42:35Z</time>
      </trkpt>
      <trkpt lat="45.97987" lon="4.60802">
        <ele>361</ele>
        <time>2022-10-13T10:42:45Z</time>
      </trkpt>
      <trkpt lat="45.97995" lon="4.60802">
        <ele>363</ele>
        <time>2022-10-13T10:42:55Z</time>
      </trkpt>
      <trkpt lat="45.98011" lon="4.60823">
        <ele>365</ele>
        <time>2022-10-13T10:43:30Z</time>
      </trkpt>
      <trkpt lat="45.98021" lon="4.60828">
        <ele>367</ele>
        <time>2022-10-13T10:43:42Z</time>
      </trkpt>
      <trkpt lat="45.9803" lon="4.6083">
        <ele>368</ele>
        <time>2022-10-13T10:43:55Z</time>
      </trkpt>
      <trkpt lat="45.98042" lon="4.60827">
        <ele>369</ele>
        <time>2022-10-13T10:44:05Z</time>
      </trkpt>
      <trkpt lat="45.98047" lon="4.60828">
        <ele>369</ele>
        <time>2022-10-13T10:44:10Z</time>
      </trkpt>
      <trkpt lat="45.98056" lon="4.60833">
        <ele>371</ele>
        <time>2022-10-13T10:44:20Z</time>
      </trkpt>
      <trkpt lat="45.98071" lon="4.60846">
        <ele>372</ele>
        <time>2022-10-13T10:44:45Z</time>
      </trkpt>
      <trkpt lat="45.98085" lon="4.60826">
        <ele>376</ele>
        <time>2022-10-13T10:45:18Z</time>
      </trkpt>
      <trkpt lat="45.98091" lon="4.60806">
        <ele>379</ele>
        <time>2022-10-13T10:45:39Z</time>
      </trkpt>
      <trkpt lat="45.98093" lon="4.60793">
        <ele>379</ele>
        <time>2022-10-13T10:45:49Z</time>
      </trkpt>
      <trkpt lat="45.98096" lon="4.60787">
        <ele>380</ele>
        <time>2022-10-13T10:45:56Z</time>
      </trkpt>
      <trkpt lat="45.98102" lon="4.60785">
        <ele>380</ele>
        <time>2022-10-13T10:46:06Z</time>
      </trkpt>
      <trkpt lat="45.98107" lon="4.60779">
        <ele>379</ele>
        <time>2022-10-13T10:48:19Z</time>
      </trkpt>
      <trkpt lat="45.98116" lon="4.60762">
        <ele>379</ele>
        <time>2022-10-13T10:48:34Z</time>
      </trkpt>
      <trkpt lat="45.98119" lon="4.60758">
        <ele>379</ele>
        <time>2022-10-13T10:48:39Z</time>
      </trkpt>
      <trkpt lat="45.98124" lon="4.60755">
        <ele>379</ele>
        <time>2022-10-13T10:48:52Z</time>
      </trkpt>
      <trkpt lat="45.98131" lon="4.60748">
        <ele>380</ele>
        <time>2022-10-13T10:49:03Z</time>
      </trkpt>
      <trkpt lat="45.98137" lon="4.60744">
        <ele>380</ele>
        <time>2022-10-13T10:49:14Z</time>
      </trkpt>
      <trkpt lat="45.98146" lon="4.60735">
        <ele>380</ele>
        <time>2022-10-13T10:49:26Z</time>
      </trkpt>
      <trkpt lat="45.98157" lon="4.60726">
        <ele>381</ele>
        <time>2022-10-13T10:49:40Z</time>
      </trkpt>
      <trkpt lat="45.98162" lon="4.60726">
        <ele>381</ele>
        <time>2022-10-13T10:49:50Z</time>
      </trkpt>
      <trkpt lat="45.98167" lon="4.60727">
        <ele>382</ele>
        <time>2022-10-13T10:50:05Z</time>
      </trkpt>
      <trkpt lat="45.98172" lon="4.60727">
        <ele>381</ele>
        <time>2022-10-13T10:50:50Z</time>
      </trkpt>
      <trkpt lat="45.98171" lon="4.60725">
        <ele>382</ele>
        <time>2022-10-13T11:32:20Z</time>
      </trkpt>
      <trkpt lat="45.9817" lon="4.60717">
        <ele>381</ele>
        <time>2022-10-13T11:33:54Z</time>
      </trkpt>
      <trkpt lat="45.98192" lon="4.60712">
        <ele>383</ele>
        <time>2022-10-13T11:34:24Z</time>
      </trkpt>
      <trkpt lat="45.98198" lon="4.60708">
        <ele>385</ele>
        <time>2022-10-13T11:34:39Z</time>
      </trkpt>
      <trkpt lat="45.98203" lon="4.60706">
        <ele>386</ele>
        <time>2022-10-13T11:34:49Z</time>
      </trkpt>
      <trkpt lat="45.98207" lon="4.60698">
        <ele>388</ele>
        <time>2022-10-13T11:35:04Z</time>
      </trkpt>
      <trkpt lat="45.98214" lon="4.60678">
        <ele>391</ele>
        <time>2022-10-13T11:35:26Z</time>
      </trkpt>
      <trkpt lat="45.98221" lon="4.60671">
        <ele>392</ele>
        <time>2022-10-13T11:35:41Z</time>
      </trkpt>
      <trkpt lat="45.98241" lon="4.60659">
        <ele>394</ele>
        <time>2022-10-13T11:36:11Z</time>
      </trkpt>
      <trkpt lat="45.98268" lon="4.6065">
        <ele>397</ele>
        <time>2022-10-13T11:36:48Z</time>
      </trkpt>
      <trkpt lat="45.98276" lon="4.60648">
        <ele>398</ele>
        <time>2022-10-13T11:37:00Z</time>
      </trkpt>
      <trkpt lat="45.98286" lon="4.60649">
        <ele>399</ele>
        <time>2022-10-13T11:37:11Z</time>
      </trkpt>
      <trkpt lat="45.98293" lon="4.60653">
        <ele>400</ele>
        <time>2022-10-13T11:37:24Z</time>
      </trkpt>
      <trkpt lat="45.98319" lon="4.6066">
        <ele>403</ele>
        <time>2022-10-13T11:37:56Z</time>
      </trkpt>
      <trkpt lat="45.98333" lon="4.60662">
        <ele>406</ele>
        <time>2022-10-13T11:38:16Z</time>
      </trkpt>
      <trkpt lat="45.98339" lon="4.60659">
        <ele>407</ele>
        <time>2022-10-13T11:38:31Z</time>
      </trkpt>
      <trkpt lat="45.98343" lon="4.60654">
        <ele>407</ele>
        <time>2022-10-13T11:38:38Z</time>
      </trkpt>
      <trkpt lat="45.98347" lon="4.6065">
        <ele>408</ele>
        <time>2022-10-13T11:38:44Z</time>
      </trkpt>
      <trkpt lat="45.98338" lon="4.60659">
        <ele>408</ele>
        <time>2022-10-13T11:39:05Z</time>
      </trkpt>
      <trkpt lat="45.98334" lon="4.60663">
        <ele>408</ele>
        <time>2022-10-13T11:39:10Z</time>
      </trkpt>
      <trkpt lat="45.98331" lon="4.60676">
        <ele>409</ele>
        <time>2022-10-13T11:39:27Z</time>
      </trkpt>
      <trkpt lat="45.98333" lon="4.60684">
        <ele>410</ele>
        <time>2022-10-13T11:39:35Z</time>
      </trkpt>
      <trkpt lat="45.98342" lon="4.60696">
        <ele>413</ele>
        <time>2022-10-13T11:40:02Z</time>
      </trkpt>
      <trkpt lat="45.98347" lon="4.60704">
        <ele>415</ele>
        <time>2022-10-13T11:40:12Z</time>
      </trkpt>
      <trkpt lat="45.98366" lon="4.60724">
        <ele>419</ele>
        <time>2022-10-13T11:40:42Z</time>
      </trkpt>
      <trkpt lat="45.98388" lon="4.60751">
        <ele>424</ele>
        <time>2022-10-13T11:41:16Z</time>
      </trkpt>
      <trkpt lat="45.98394" lon="4.60758">
        <ele>425</ele>
        <time>2022-10-13T11:41:26Z</time>
      </trkpt>
      <trkpt lat="45.98391" lon="4.60768">
        <ele>427</ele>
        <time>2022-10-13T11:41:37Z</time>
      </trkpt>
      <trkpt lat="45.98384" lon="4.60779">
        <ele>426</ele>
        <time>2022-10-13T11:41:46Z</time>
      </trkpt>
      <trkpt lat="45.98381" lon="4.60784">
        <ele>427</ele>
        <time>2022-10-13T11:41:51Z</time>
      </trkpt>
      <trkpt lat="45.98375" lon="4.60797">
        <ele>427</ele>
        <time>2022-10-13T11:42:01Z</time>
      </trkpt>
      <trkpt lat="45.98372" lon="4.60803">
        <ele>427</ele>
        <time>2022-10-13T11:42:06Z</time>
      </trkpt>
      <trkpt lat="45.9837" lon="4.60811">
        <ele>427</ele>
        <time>2022-10-13T11:42:11Z</time>
      </trkpt>
      <trkpt lat="45.98371" lon="4.60818">
        <ele>427</ele>
        <time>2022-10-13T11:42:16Z</time>
      </trkpt>
      <trkpt lat="45.98374" lon="4.60823">
        <ele>428</ele>
        <time>2022-10-13T11:42:21Z</time>
      </trkpt>
      <trkpt lat="45.98385" lon="4.60825">
        <ele>430</ele>
        <time>2022-10-13T11:42:34Z</time>
      </trkpt>
      <trkpt lat="45.98398" lon="4.60821">
        <ele>431</ele>
        <time>2022-10-13T11:42:47Z</time>
      </trkpt>
      <trkpt lat="45.98427" lon="4.60799">
        <ele>435</ele>
        <time>2022-10-13T11:43:21Z</time>
      </trkpt>
      <trkpt lat="45.98431" lon="4.60795">
        <ele>435</ele>
        <time>2022-10-13T11:43:26Z</time>
      </trkpt>
      <trkpt lat="45.98435" lon="4.6079">
        <ele>436</ele>
        <time>2022-10-13T11:43:31Z</time>
      </trkpt>
      <trkpt lat="45.98467" lon="4.60777">
        <ele>439</ele>
        <time>2022-10-13T11:44:08Z</time>
      </trkpt>
      <trkpt lat="45.98474" lon="4.60775">
        <ele>440</ele>
        <time>2022-10-13T11:44:15Z</time>
      </trkpt>
      <trkpt lat="45.98485" lon="4.60768">
        <ele>442</ele>
        <time>2022-10-13T11:44:31Z</time>
      </trkpt>
      <trkpt lat="45.98511" lon="4.60761">
        <ele>445</ele>
        <time>2022-10-13T11:45:02Z</time>
      </trkpt>
      <trkpt lat="45.9852" lon="4.60763">
        <ele>447</ele>
        <time>2022-10-13T11:45:13Z</time>
      </trkpt>
      <trkpt lat="45.98532" lon="4.60755">
        <ele>449</ele>
        <time>2022-10-13T11:45:33Z</time>
      </trkpt>
      <trkpt lat="45.98538" lon="4.60752">
        <ele>450</ele>
        <time>2022-10-13T11:45:44Z</time>
      </trkpt>
      <trkpt lat="45.98556" lon="4.60739">
        <ele>452</ele>
        <time>2022-10-13T11:46:14Z</time>
      </trkpt>
      <trkpt lat="45.98562" lon="4.60735">
        <ele>453</ele>
        <time>2022-10-13T11:46:24Z</time>
      </trkpt>
      <trkpt lat="45.98568" lon="4.60733">
        <ele>454</ele>
        <time>2022-10-13T11:46:30Z</time>
      </trkpt>
      <trkpt lat="45.98585" lon="4.60721">
        <ele>455</ele>
        <time>2022-10-13T11:46:52Z</time>
      </trkpt>
      <trkpt lat="45.98594" lon="4.60717">
        <ele>457</ele>
        <time>2022-10-13T11:47:03Z</time>
      </trkpt>
      <trkpt lat="45.986" lon="4.60717">
        <ele>458</ele>
        <time>2022-10-13T11:47:10Z</time>
      </trkpt>
      <trkpt lat="45.98615" lon="4.60724">
        <ele>460</ele>
        <time>2022-10-13T11:47:31Z</time>
      </trkpt>
      <trkpt lat="45.98621" lon="4.60729">
        <ele>461</ele>
        <time>2022-10-13T11:47:39Z</time>
      </trkpt>
      <trkpt lat="45.98649" lon="4.60731">
        <ele>463</ele>
        <time>2022-10-13T11:48:14Z</time>
      </trkpt>
      <trkpt lat="45.98655" lon="4.60733">
        <ele>463</ele>
        <time>2022-10-13T11:48:24Z</time>
      </trkpt>
      <trkpt lat="45.98661" lon="4.60734">
        <ele>462</ele>
        <time>2022-10-13T11:48:31Z</time>
      </trkpt>
      <trkpt lat="45.98689" lon="4.60742">
        <ele>463</ele>
        <time>2022-10-13T11:49:01Z</time>
      </trkpt>
      <trkpt lat="45.98723" lon="4.60752">
        <ele>464</ele>
        <time>2022-10-13T11:49:36Z</time>
      </trkpt>
      <trkpt lat="45.98754" lon="4.60761">
        <ele>465</ele>
        <time>2022-10-13T11:50:09Z</time>
      </trkpt>
      <trkpt lat="45.98775" lon="4.60766">
        <ele>465</ele>
        <time>2022-10-13T11:50:30Z</time>
      </trkpt>
      <trkpt lat="45.98781" lon="4.60771">
        <ele>465</ele>
        <time>2022-10-13T11:50:34Z</time>
      </trkpt>
      <trkpt lat="45.98785" lon="4.60775">
        <ele>465</ele>
        <time>2022-10-13T11:50:38Z</time>
      </trkpt>
      <trkpt lat="45.98801" lon="4.60818">
        <ele>466</ele>
        <time>2022-10-13T11:51:06Z</time>
      </trkpt>
      <trkpt lat="45.98805" lon="4.60823">
        <ele>466</ele>
        <time>2022-10-13T11:51:11Z</time>
      </trkpt>
      <trkpt lat="45.98809" lon="4.60826">
        <ele>466</ele>
        <time>2022-10-13T11:51:16Z</time>
      </trkpt>
      <trkpt lat="45.98836" lon="4.60829">
        <ele>468</ele>
        <time>2022-10-13T11:51:42Z</time>
      </trkpt>
      <trkpt lat="45.98841" lon="4.60831">
        <ele>468</ele>
        <time>2022-10-13T11:51:47Z</time>
      </trkpt>
      <trkpt lat="45.98847" lon="4.60831">
        <ele>468</ele>
        <time>2022-10-13T11:51:54Z</time>
      </trkpt>
      <trkpt lat="45.98851" lon="4.60823">
        <ele>469</ele>
        <time>2022-10-13T11:52:04Z</time>
      </trkpt>
      <trkpt lat="45.98859" lon="4.60815">
        <ele>469</ele>
        <time>2022-10-13T11:52:12Z</time>
      </trkpt>
      <trkpt lat="45.98856" lon="4.60816">
        <ele>469</ele>
        <time>2022-10-13T11:52:59Z</time>
      </trkpt>
      <trkpt lat="45.98851" lon="4.60823">
        <ele>469</ele>
        <time>2022-10-13T11:53:07Z</time>
      </trkpt>
      <trkpt lat="45.98851" lon="4.6082">
        <ele>470</ele>
        <time>2022-10-13T11:53:49Z</time>
      </trkpt>
      <trkpt lat="45.98853" lon="4.60813">
        <ele>470</ele>
        <time>2022-10-13T11:53:54Z</time>
      </trkpt>
      <trkpt lat="45.98856" lon="4.60806">
        <ele>470</ele>
        <time>2022-10-13T11:54:00Z</time>
      </trkpt>
      <trkpt lat="45.98868" lon="4.60766">
        <ele>469</ele>
        <time>2022-10-13T11:54:27Z</time>
      </trkpt>
      <trkpt lat="45.98875" lon="4.60753">
        <ele>469</ele>
        <time>2022-10-13T11:54:37Z</time>
      </trkpt>
      <trkpt lat="45.98877" lon="4.60746">
        <ele>469</ele>
        <time>2022-10-13T11:54:41Z</time>
      </trkpt>
      <trkpt lat="45.98892" lon="4.60723">
        <ele>469</ele>
        <time>2022-10-13T11:55:01Z</time>
      </trkpt>
      <trkpt lat="45.9891" lon="4.60677">
        <ele>470</ele>
        <time>2022-10-13T11:55:33Z</time>
      </trkpt>
      <trkpt lat="45.98927" lon="4.60635">
        <ele>470</ele>
        <time>2022-10-13T11:56:03Z</time>
      </trkpt>
      <trkpt lat="45.98936" lon="4.60614">
        <ele>471</ele>
        <time>2022-10-13T11:56:20Z</time>
      </trkpt>
      <trkpt lat="45.98937" lon="4.60607">
        <ele>471</ele>
        <time>2022-10-13T11:56:25Z</time>
      </trkpt>
      <trkpt lat="45.9894" lon="4.60601">
        <ele>472</ele>
        <time>2022-10-13T11:56:30Z</time>
      </trkpt>
      <trkpt lat="45.98943" lon="4.60575">
        <ele>474</ele>
        <time>2022-10-13T11:56:48Z</time>
      </trkpt>
      <trkpt lat="45.98946" lon="4.60555">
        <ele>477</ele>
        <time>2022-10-13T11:57:06Z</time>
      </trkpt>
      <trkpt lat="45.98939" lon="4.60533">
        <ele>480</ele>
        <time>2022-10-13T11:57:28Z</time>
      </trkpt>
      <trkpt lat="45.9893" lon="4.605">
        <ele>484</ele>
        <time>2022-10-13T11:58:06Z</time>
      </trkpt>
      <trkpt lat="45.98924" lon="4.60484">
        <ele>486</ele>
        <time>2022-10-13T11:58:19Z</time>
      </trkpt>
      <trkpt lat="45.98921" lon="4.60468">
        <ele>486</ele>
        <time>2022-10-13T11:58:30Z</time>
      </trkpt>
      <trkpt lat="45.98922" lon="4.60461">
        <ele>486</ele>
        <time>2022-10-13T11:58:40Z</time>
      </trkpt>
      <trkpt lat="45.98927" lon="4.60459">
        <ele>486</ele>
        <time>2022-10-13T11:59:15Z</time>
      </trkpt>
      <trkpt lat="45.98931" lon="4.60462">
        <ele>487</ele>
        <time>2022-10-13T11:59:30Z</time>
      </trkpt>
      <trkpt lat="45.9894" lon="4.60464">
        <ele>488</ele>
        <time>2022-10-13T11:59:50Z</time>
      </trkpt>
      <trkpt lat="45.98967" lon="4.60467">
        <ele>491</ele>
        <time>2022-10-13T12:00:22Z</time>
      </trkpt>
      <trkpt lat="45.98977" lon="4.60469">
        <ele>492</ele>
        <time>2022-10-13T12:00:34Z</time>
      </trkpt>
      <trkpt lat="45.98982" lon="4.60471">
        <ele>493</ele>
        <time>2022-10-13T12:00:39Z</time>
      </trkpt>
      <trkpt lat="45.98993" lon="4.60473">
        <ele>494</ele>
        <time>2022-10-13T12:00:49Z</time>
      </trkpt>
      <trkpt lat="45.99" lon="4.60477">
        <ele>495</ele>
        <time>2022-10-13T12:00:59Z</time>
      </trkpt>
      <trkpt lat="45.99031" lon="4.60483">
        <ele>497</ele>
        <time>2022-10-13T12:01:35Z</time>
      </trkpt>
      <trkpt lat="45.99065" lon="4.60488">
        <ele>499</ele>
        <time>2022-10-13T12:02:09Z</time>
      </trkpt>
      <trkpt lat="45.9907" lon="4.60489">
        <ele>500</ele>
        <time>2022-10-13T12:02:14Z</time>
      </trkpt>
      <trkpt lat="45.99106" lon="4.60498">
        <ele>502</ele>
        <time>2022-10-13T12:02:53Z</time>
      </trkpt>
      <trkpt lat="45.99141" lon="4.605">
        <ele>505</ele>
        <time>2022-10-13T12:03:28Z</time>
      </trkpt>
      <trkpt lat="45.99177" lon="4.60502">
        <ele>507</ele>
        <time>2022-10-13T12:04:02Z</time>
      </trkpt>
      <trkpt lat="45.99207" lon="4.60494">
        <ele>509</ele>
        <time>2022-10-13T12:04:33Z</time>
      </trkpt>
      <trkpt lat="45.99227" lon="4.60491">
        <ele>510</ele>
        <time>2022-10-13T12:04:54Z</time>
      </trkpt>
      <trkpt lat="45.99254" lon="4.60489">
        <ele>511</ele>
        <time>2022-10-13T12:05:20Z</time>
      </trkpt>
      <trkpt lat="45.99273" lon="4.60478">
        <ele>511</ele>
        <time>2022-10-13T12:05:40Z</time>
      </trkpt>
      <trkpt lat="45.99295" lon="4.60453">
        <ele>512</ele>
        <time>2022-10-13T12:06:11Z</time>
      </trkpt>
      <trkpt lat="45.99299" lon="4.60448">
        <ele>512</ele>
        <time>2022-10-13T12:06:16Z</time>
      </trkpt>
      <trkpt lat="45.99302" lon="4.60443">
        <ele>512</ele>
        <time>2022-10-13T12:06:21Z</time>
      </trkpt>
      <trkpt lat="45.99305" lon="4.60433">
        <ele>512</ele>
        <time>2022-10-13T12:06:28Z</time>
      </trkpt>
      <trkpt lat="45.9931" lon="4.60424">
        <ele>512</ele>
        <time>2022-10-13T12:06:36Z</time>
      </trkpt>
      <trkpt lat="45.99314" lon="4.6042">
        <ele>512</ele>
        <time>2022-10-13T12:06:41Z</time>
      </trkpt>
      <trkpt lat="45.99331" lon="4.60375">
        <ele>511</ele>
        <time>2022-10-13T12:07:14Z</time>
      </trkpt>
      <trkpt lat="45.99335" lon="4.60372">
        <ele>510</ele>
        <time>2022-10-13T12:07:27Z</time>
      </trkpt>
      <trkpt lat="45.99337" lon="4.60366">
        <ele>510</ele>
        <time>2022-10-13T12:07:32Z</time>
      </trkpt>
      <trkpt lat="45.9935" lon="4.60342">
        <ele>509</ele>
        <time>2022-10-13T12:07:53Z</time>
      </trkpt>
      <trkpt lat="45.99353" lon="4.60333">
        <ele>509</ele>
        <time>2022-10-13T12:08:01Z</time>
      </trkpt>
      <trkpt lat="45.99356" lon="4.60329">
        <ele>509</ele>
        <time>2022-10-13T12:08:06Z</time>
      </trkpt>
      <trkpt lat="45.99359" lon="4.60323">
        <ele>508</ele>
        <time>2022-10-13T12:08:13Z</time>
      </trkpt>
      <trkpt lat="45.99365" lon="4.60304">
        <ele>508</ele>
        <time>2022-10-13T12:08:28Z</time>
      </trkpt>
      <trkpt lat="45.99372" lon="4.60293">
        <ele>507</ele>
        <time>2022-10-13T12:08:38Z</time>
      </trkpt>
      <trkpt lat="45.99392" lon="4.60259">
        <ele>502</ele>
        <time>2022-10-13T12:09:09Z</time>
      </trkpt>
      <trkpt lat="45.99396" lon="4.60251">
        <ele>502</ele>
        <time>2022-10-13T12:09:18Z</time>
      </trkpt>
      <trkpt lat="45.99398" lon="4.60243">
        <ele>501</ele>
        <time>2022-10-13T12:09:24Z</time>
      </trkpt>
      <trkpt lat="45.99405" lon="4.60229">
        <ele>500</ele>
        <time>2022-10-13T12:09:35Z</time>
      </trkpt>
      <trkpt lat="45.99418" lon="4.6019">
        <ele>496</ele>
        <time>2022-10-13T12:10:11Z</time>
      </trkpt>
      <trkpt lat="45.99432" lon="4.60171">
        <ele>494</ele>
        <time>2022-10-13T12:10:31Z</time>
      </trkpt>
      <trkpt lat="45.99436" lon="4.60166">
        <ele>493</ele>
        <time>2022-10-13T12:10:45Z</time>
      </trkpt>
      <trkpt lat="45.99435" lon="4.60164">
        <ele>494</ele>
        <time>2022-10-13T12:11:22Z</time>
      </trkpt>
      <trkpt lat="45.99442" lon="4.60167">
        <ele>494</ele>
        <time>2022-10-13T12:12:28Z</time>
      </trkpt>
      <trkpt lat="45.99445" lon="4.60179">
        <ele>492</ele>
        <time>2022-10-13T12:12:59Z</time>
      </trkpt>
      <trkpt lat="45.99451" lon="4.60184">
        <ele>492</ele>
        <time>2022-10-13T12:13:03Z</time>
      </trkpt>
      <trkpt lat="45.99456" lon="4.60188">
        <ele>490</ele>
        <time>2022-10-13T12:13:09Z</time>
      </trkpt>
      <trkpt lat="45.99474" lon="4.60196">
        <ele>487</ele>
        <time>2022-10-13T12:13:36Z</time>
      </trkpt>
      <trkpt lat="45.99473" lon="4.60206">
        <ele>486</ele>
        <time>2022-10-13T12:13:52Z</time>
      </trkpt>
      <trkpt lat="45.99472" lon="4.60215">
        <ele>486</ele>
        <time>2022-10-13T12:14:00Z</time>
      </trkpt>
      <trkpt lat="45.99472" lon="4.60234">
        <ele>486</ele>
        <time>2022-10-13T12:14:18Z</time>
      </trkpt>
      <trkpt lat="45.99471" lon="4.60242">
        <ele>486</ele>
        <time>2022-10-13T12:14:24Z</time>
      </trkpt>
      <trkpt lat="45.99471" lon="4.60249">
        <ele>486</ele>
        <time>2022-10-13T12:14:29Z</time>
      </trkpt>
      <trkpt lat="45.99469" lon="4.60257">
        <ele>486</ele>
        <time>2022-10-13T12:14:34Z</time>
      </trkpt>
      <trkpt lat="45.99464" lon="4.60301">
        <ele>484</ele>
        <time>2022-10-13T12:15:05Z</time>
      </trkpt>
      <trkpt lat="45.99461" lon="4.60325">
        <ele>484</ele>
        <time>2022-10-13T12:15:24Z</time>
      </trkpt>
      <trkpt lat="45.99459" lon="4.60332">
        <ele>484</ele>
        <time>2022-10-13T12:15:44Z</time>
      </trkpt>
      <trkpt lat="45.99458" lon="4.60342">
        <ele>483</ele>
        <time>2022-10-13T12:15:55Z</time>
      </trkpt>
      <trkpt lat="45.99457" lon="4.6035">
        <ele>483</ele>
        <time>2022-10-13T12:16:00Z</time>
      </trkpt>
      <trkpt lat="45.99454" lon="4.60358">
        <ele>483</ele>
        <time>2022-10-13T12:16:07Z</time>
      </trkpt>
      <trkpt lat="45.9945" lon="4.60367">
        <ele>482</ele>
        <time>2022-10-13T12:16:15Z</time>
      </trkpt>
      <trkpt lat="45.99448" lon="4.60389">
        <ele>482</ele>
        <time>2022-10-13T12:16:31Z</time>
      </trkpt>
      <trkpt lat="45.99446" lon="4.60414">
        <ele>481</ele>
        <time>2022-10-13T12:16:50Z</time>
      </trkpt>
      <trkpt lat="45.99443" lon="4.60423">
        <ele>480</ele>
        <time>2022-10-13T12:16:58Z</time>
      </trkpt>
      <trkpt lat="45.99441" lon="4.60447">
        <ele>479</ele>
        <time>2022-10-13T12:17:16Z</time>
      </trkpt>
      <trkpt lat="45.99441" lon="4.60459">
        <ele>478</ele>
        <time>2022-10-13T12:17:25Z</time>
      </trkpt>
      <trkpt lat="45.99445" lon="4.60473">
        <ele>476</ele>
        <time>2022-10-13T12:17:38Z</time>
      </trkpt>
      <trkpt lat="45.99446" lon="4.60492">
        <ele>474</ele>
        <time>2022-10-13T12:17:58Z</time>
      </trkpt>
      <trkpt lat="45.99443" lon="4.60505">
        <ele>473</ele>
        <time>2022-10-13T12:18:09Z</time>
      </trkpt>
      <trkpt lat="45.9944" lon="4.60519">
        <ele>473</ele>
        <time>2022-10-13T12:18:21Z</time>
      </trkpt>
      <trkpt lat="45.99433" lon="4.60532">
        <ele>473</ele>
        <time>2022-10-13T12:18:31Z</time>
      </trkpt>
      <trkpt lat="45.99419" lon="4.6058">
        <ele>473</ele>
        <time>2022-10-13T12:19:08Z</time>
      </trkpt>
      <trkpt lat="45.99418" lon="4.6059">
        <ele>473</ele>
        <time>2022-10-13T12:19:15Z</time>
      </trkpt>
      <trkpt lat="45.99416" lon="4.606">
        <ele>473</ele>
        <time>2022-10-13T12:19:22Z</time>
      </trkpt>
      <trkpt lat="45.99412" lon="4.60627">
        <ele>474</ele>
        <time>2022-10-13T12:19:44Z</time>
      </trkpt>
      <trkpt lat="45.9941" lon="4.60637">
        <ele>474</ele>
        <time>2022-10-13T12:19:52Z</time>
      </trkpt>
      <trkpt lat="45.99407" lon="4.60642">
        <ele>474</ele>
        <time>2022-10-13T12:19:56Z</time>
      </trkpt>
      <trkpt lat="45.99401" lon="4.6066">
        <ele>474</ele>
        <time>2022-10-13T12:20:12Z</time>
      </trkpt>
      <trkpt lat="45.994" lon="4.60677">
        <ele>475</ele>
        <time>2022-10-13T12:20:25Z</time>
      </trkpt>
      <trkpt lat="45.99395" lon="4.607">
        <ele>475</ele>
        <time>2022-10-13T12:20:45Z</time>
      </trkpt>
      <trkpt lat="45.99387" lon="4.6072">
        <ele>475</ele>
        <time>2022-10-13T12:21:01Z</time>
      </trkpt>
      <trkpt lat="45.99388" lon="4.60728">
        <ele>475</ele>
        <time>2022-10-13T12:21:06Z</time>
      </trkpt>
      <trkpt lat="45.9939" lon="4.60735">
        <ele>475</ele>
        <time>2022-10-13T12:21:12Z</time>
      </trkpt>
      <trkpt lat="45.99393" lon="4.60741">
        <ele>474</ele>
        <time>2022-10-13T12:21:19Z</time>
      </trkpt>
      <trkpt lat="45.99396" lon="4.60755">
        <ele>473</ele>
        <time>2022-10-13T12:21:30Z</time>
      </trkpt>
      <trkpt lat="45.99395" lon="4.60775">
        <ele>471</ele>
        <time>2022-10-13T12:21:44Z</time>
      </trkpt>
      <trkpt lat="45.99396" lon="4.60783">
        <ele>471</ele>
        <time>2022-10-13T12:21:49Z</time>
      </trkpt>
      <trkpt lat="45.99395" lon="4.60791">
        <ele>471</ele>
        <time>2022-10-13T12:21:54Z</time>
      </trkpt>
      <trkpt lat="45.99396" lon="4.60798">
        <ele>470</ele>
        <time>2022-10-13T12:21:58Z</time>
      </trkpt>
      <trkpt lat="45.99403" lon="4.60841">
        <ele>468</ele>
        <time>2022-10-13T12:22:30Z</time>
      </trkpt>
      <trkpt lat="45.99405" lon="4.60849">
        <ele>467</ele>
        <time>2022-10-13T12:22:38Z</time>
      </trkpt>
      <trkpt lat="45.99406" lon="4.60857">
        <ele>467</ele>
        <time>2022-10-13T12:22:43Z</time>
      </trkpt>
      <trkpt lat="45.99413" lon="4.60907">
        <ele>467</ele>
        <time>2022-10-13T12:23:16Z</time>
      </trkpt>
      <trkpt lat="45.99415" lon="4.60937">
        <ele>467</ele>
        <time>2022-10-13T12:23:35Z</time>
      </trkpt>
      <trkpt lat="45.99414" lon="4.60949">
        <ele>468</ele>
        <time>2022-10-13T12:23:45Z</time>
      </trkpt>
      <trkpt lat="45.99414" lon="4.60957">
        <ele>468</ele>
        <time>2022-10-13T12:23:50Z</time>
      </trkpt>
      <trkpt lat="45.99418" lon="4.60992">
        <ele>466</ele>
        <time>2022-10-13T12:24:15Z</time>
      </trkpt>
      <trkpt lat="45.99418" lon="4.61">
        <ele>465</ele>
        <time>2022-10-13T12:24:23Z</time>
      </trkpt>
      <trkpt lat="45.99419" lon="4.61008">
        <ele>465</ele>
        <time>2022-10-13T12:24:28Z</time>
      </trkpt>
      <trkpt lat="45.9942" lon="4.61015">
        <ele>464</ele>
        <time>2022-10-13T12:24:33Z</time>
      </trkpt>
      <trkpt lat="45.99421" lon="4.61044">
        <ele>462</ele>
        <time>2022-10-13T12:24:52Z</time>
      </trkpt>
      <trkpt lat="45.99422" lon="4.61051">
        <ele>462</ele>
        <time>2022-10-13T12:24:57Z</time>
      </trkpt>
      <trkpt lat="45.99418" lon="4.61092">
        <ele>459</ele>
        <time>2022-10-13T12:25:27Z</time>
      </trkpt>
      <trkpt lat="45.99411" lon="4.61143">
        <ele>456</ele>
        <time>2022-10-13T12:26:01Z</time>
      </trkpt>
      <trkpt lat="45.99411" lon="4.61151">
        <ele>456</ele>
        <time>2022-10-13T12:26:06Z</time>
      </trkpt>
      <trkpt lat="45.99411" lon="4.61183">
        <ele>454</ele>
        <time>2022-10-13T12:26:30Z</time>
      </trkpt>
      <trkpt lat="45.9941" lon="4.61191">
        <ele>453</ele>
        <time>2022-10-13T12:26:37Z</time>
      </trkpt>
      <trkpt lat="45.99405" lon="4.61202">
        <ele>452</ele>
        <time>2022-10-13T12:26:48Z</time>
      </trkpt>
      <trkpt lat="45.99401" lon="4.61208">
        <ele>452</ele>
        <time>2022-10-13T12:26:52Z</time>
      </trkpt>
      <trkpt lat="45.994" lon="4.61216">
        <ele>452</ele>
        <time>2022-10-13T12:26:56Z</time>
      </trkpt>
      <trkpt lat="45.99397" lon="4.61224">
        <ele>451</ele>
        <time>2022-10-13T12:27:04Z</time>
      </trkpt>
      <trkpt lat="45.99396" lon="4.61233">
        <ele>450</ele>
        <time>2022-10-13T12:27:12Z</time>
      </trkpt>
      <trkpt lat="45.99383" lon="4.61272">
        <ele>448</ele>
        <time>2022-10-13T12:27:47Z</time>
      </trkpt>
      <trkpt lat="45.99372" lon="4.61312">
        <ele>445</ele>
        <time>2022-10-13T12:28:18Z</time>
      </trkpt>
      <trkpt lat="45.99362" lon="4.61342">
        <ele>443</ele>
        <time>2022-10-13T12:28:43Z</time>
      </trkpt>
      <trkpt lat="45.99354" lon="4.61384">
        <ele>440</ele>
        <time>2022-10-13T12:29:16Z</time>
      </trkpt>
      <trkpt lat="45.99351" lon="4.61399">
        <ele>439</ele>
        <time>2022-10-13T12:29:26Z</time>
      </trkpt>
      <trkpt lat="45.9935" lon="4.61446">
        <ele>435</ele>
        <time>2022-10-13T12:30:01Z</time>
      </trkpt>
      <trkpt lat="45.9935" lon="4.61458">
        <ele>434</ele>
        <time>2022-10-13T12:30:11Z</time>
      </trkpt>
      <trkpt lat="45.99338" lon="4.61503">
        <ele>431</ele>
        <time>2022-10-13T12:30:42Z</time>
      </trkpt>
      <trkpt lat="45.99335" lon="4.61525">
        <ele>430</ele>
        <time>2022-10-13T12:30:56Z</time>
      </trkpt>
      <trkpt lat="45.99325" lon="4.61553">
        <ele>429</ele>
        <time>2022-10-13T12:31:14Z</time>
      </trkpt>
      <trkpt lat="45.99323" lon="4.6156">
        <ele>429</ele>
        <time>2022-10-13T12:31:19Z</time>
      </trkpt>
      <trkpt lat="45.99321" lon="4.61567">
        <ele>428</ele>
        <time>2022-10-13T12:31:24Z</time>
      </trkpt>
      <trkpt lat="45.99314" lon="4.61604">
        <ele>428</ele>
        <time>2022-10-13T12:31:47Z</time>
      </trkpt>
      <trkpt lat="45.99311" lon="4.6161">
        <ele>428</ele>
        <time>2022-10-13T12:31:50Z</time>
      </trkpt>
      <trkpt lat="45.99307" lon="4.61612">
        <ele>428</ele>
        <time>2022-10-13T12:31:54Z</time>
      </trkpt>
      <trkpt lat="45.99286" lon="4.61616">
        <ele>428</ele>
        <time>2022-10-13T12:32:10Z</time>
      </trkpt>
      <trkpt lat="45.99279" lon="4.61626">
        <ele>428</ele>
        <time>2022-10-13T12:32:18Z</time>
      </trkpt>
      <trkpt lat="45.99277" lon="4.61632">
        <ele>428</ele>
        <time>2022-10-13T12:32:22Z</time>
      </trkpt>
      <trkpt lat="45.99257" lon="4.61677">
        <ele>428</ele>
        <time>2022-10-13T12:32:56Z</time>
      </trkpt>
      <trkpt lat="45.99248" lon="4.61703">
        <ele>428</ele>
        <time>2022-10-13T12:33:15Z</time>
      </trkpt>
      <trkpt lat="45.99244" lon="4.61708">
        <ele>428</ele>
        <time>2022-10-13T12:33:18Z</time>
      </trkpt>
      <trkpt lat="45.99221" lon="4.61752">
        <ele>427</ele>
        <time>2022-10-13T12:33:48Z</time>
      </trkpt>
      <trkpt lat="45.99216" lon="4.61771">
        <ele>426</ele>
        <time>2022-10-13T12:34:01Z</time>
      </trkpt>
      <trkpt lat="45.99217" lon="4.618">
        <ele>424</ele>
        <time>2022-10-13T12:34:18Z</time>
      </trkpt>
      <trkpt lat="45.99219" lon="4.61807">
        <ele>424</ele>
        <time>2022-10-13T12:34:22Z</time>
      </trkpt>
      <trkpt lat="45.99219" lon="4.61813">
        <ele>424</ele>
        <time>2022-10-13T12:34:26Z</time>
      </trkpt>
      <trkpt lat="45.99223" lon="4.61843">
        <ele>422</ele>
        <time>2022-10-13T12:34:45Z</time>
      </trkpt>
      <trkpt lat="45.99222" lon="4.61864">
        <ele>420</ele>
        <time>2022-10-13T12:34:59Z</time>
      </trkpt>
      <trkpt lat="45.99219" lon="4.61877">
        <ele>419</ele>
        <time>2022-10-13T12:35:09Z</time>
      </trkpt>
      <trkpt lat="45.9922" lon="4.61914">
        <ele>417</ele>
        <time>2022-10-13T12:35:31Z</time>
      </trkpt>
      <trkpt lat="45.99218" lon="4.6192">
        <ele>416</ele>
        <time>2022-10-13T12:35:36Z</time>
      </trkpt>
      <trkpt lat="45.992" lon="4.61934">
        <ele>416</ele>
        <time>2022-10-13T12:35:52Z</time>
      </trkpt>
      <trkpt lat="45.99196" lon="4.61939">
        <ele>416</ele>
        <time>2022-10-13T12:35:59Z</time>
      </trkpt>
      <trkpt lat="45.99189" lon="4.61948">
        <ele>415</ele>
        <time>2022-10-13T12:36:08Z</time>
      </trkpt>
      <trkpt lat="45.99187" lon="4.61958">
        <ele>414</ele>
        <time>2022-10-13T12:36:18Z</time>
      </trkpt>
      <trkpt lat="45.9919" lon="4.61966">
        <ele>413</ele>
        <time>2022-10-13T12:36:28Z</time>
      </trkpt>
      <trkpt lat="45.99198" lon="4.61986">
        <ele>410</ele>
        <time>2022-10-13T12:36:47Z</time>
      </trkpt>
      <trkpt lat="45.99201" lon="4.61991">
        <ele>409</ele>
        <time>2022-10-13T12:36:53Z</time>
      </trkpt>
      <trkpt lat="45.99207" lon="4.61999">
        <ele>407</ele>
        <time>2022-10-13T12:37:04Z</time>
      </trkpt>
      <trkpt lat="45.9921" lon="4.62006">
        <ele>406</ele>
        <time>2022-10-13T12:37:13Z</time>
      </trkpt>
      <trkpt lat="45.99205" lon="4.62009">
        <ele>406</ele>
        <time>2022-10-13T12:37:17Z</time>
      </trkpt>
      <trkpt lat="45.99201" lon="4.6201">
        <ele>406</ele>
        <time>2022-10-13T12:37:22Z</time>
      </trkpt>
      <trkpt lat="45.99195" lon="4.62012">
        <ele>406</ele>
        <time>2022-10-13T12:38:11Z</time>
      </trkpt>
      <trkpt lat="45.9919" lon="4.62013">
        <ele>406</ele>
        <time>2022-10-13T12:38:14Z</time>
      </trkpt>
      <trkpt lat="45.99153" lon="4.62012">
        <ele>405</ele>
        <time>2022-10-13T12:38:47Z</time>
      </trkpt>
      <trkpt lat="45.99136" lon="4.62012">
        <ele>405</ele>
        <time>2022-10-13T12:39:04Z</time>
      </trkpt>
      <trkpt lat="45.99131" lon="4.62013">
        <ele>404</ele>
        <time>2022-10-13T12:39:09Z</time>
      </trkpt>
      <trkpt lat="45.99125" lon="4.62014">
        <ele>404</ele>
        <time>2022-10-13T12:39:16Z</time>
      </trkpt>
      <trkpt lat="45.99108" lon="4.62029">
        <ele>403</ele>
        <time>2022-10-13T12:39:34Z</time>
      </trkpt>
      <trkpt lat="45.99068" lon="4.62047">
        <ele>403</ele>
        <time>2022-10-13T12:40:32Z</time>
      </trkpt>
      <trkpt lat="45.99065" lon="4.62053">
        <ele>402</ele>
        <time>2022-10-13T12:40:37Z</time>
      </trkpt>
      <trkpt lat="45.99061" lon="4.62066">
        <ele>400</ele>
        <time>2022-10-13T12:40:47Z</time>
      </trkpt>
      <trkpt lat="45.99058" lon="4.6208">
        <ele>398</ele>
        <time>2022-10-13T12:40:57Z</time>
      </trkpt>
      <trkpt lat="45.99056" lon="4.62087">
        <ele>398</ele>
        <time>2022-10-13T12:41:02Z</time>
      </trkpt>
      <trkpt lat="45.99054" lon="4.62108">
        <ele>396</ele>
        <time>2022-10-13T12:41:14Z</time>
      </trkpt>
      <trkpt lat="45.99047" lon="4.62141">
        <ele>392</ele>
        <time>2022-10-13T12:41:34Z</time>
      </trkpt>
      <trkpt lat="45.99043" lon="4.62193">
        <ele>387</ele>
        <time>2022-10-13T12:42:05Z</time>
      </trkpt>
      <trkpt lat="45.99042" lon="4.622">
        <ele>387</ele>
        <time>2022-10-13T12:42:09Z</time>
      </trkpt>
      <trkpt lat="45.9904" lon="4.62214">
        <ele>385</ele>
        <time>2022-10-13T12:42:18Z</time>
      </trkpt>
      <trkpt lat="45.9904" lon="4.62223">
        <ele>384</ele>
        <time>2022-10-13T12:42:22Z</time>
      </trkpt>
      <trkpt lat="45.99039" lon="4.6223">
        <ele>384</ele>
        <time>2022-10-13T12:42:26Z</time>
      </trkpt>
      <trkpt lat="45.99038" lon="4.62238">
        <ele>383</ele>
        <time>2022-10-13T12:42:31Z</time>
      </trkpt>
      <trkpt lat="45.99037" lon="4.62245">
        <ele>382</ele>
        <time>2022-10-13T12:42:35Z</time>
      </trkpt>
      <trkpt lat="45.99034" lon="4.62252">
        <ele>382</ele>
        <time>2022-10-13T12:42:41Z</time>
      </trkpt>
      <trkpt lat="45.99032" lon="4.62259">
        <ele>382</ele>
        <time>2022-10-13T12:42:54Z</time>
      </trkpt>
      <trkpt lat="45.9903" lon="4.62316">
        <ele>378</ele>
        <time>2022-10-13T12:43:27Z</time>
      </trkpt>
      <trkpt lat="45.99032" lon="4.62376">
        <ele>376</ele>
        <time>2022-10-13T12:44:02Z</time>
      </trkpt>
      <trkpt lat="45.99035" lon="4.62407">
        <ele>376</ele>
        <time>2022-10-13T12:44:17Z</time>
      </trkpt>
      <trkpt lat="45.99039" lon="4.62416">
        <ele>376</ele>
        <time>2022-10-13T12:44:21Z</time>
      </trkpt>
      <trkpt lat="45.99018" lon="4.6242">
        <ele>375</ele>
        <time>2022-10-13T12:44:35Z</time>
      </trkpt>
      <trkpt lat="45.99012" lon="4.62418">
        <ele>375</ele>
        <time>2022-10-13T12:44:44Z</time>
      </trkpt>
      <trkpt lat="45.98994" lon="4.62426">
        <ele>374</ele>
        <time>2022-10-13T12:45:03Z</time>
      </trkpt>
      <trkpt lat="45.98977" lon="4.62428">
        <ele>372</ele>
        <time>2022-10-13T12:45:17Z</time>
      </trkpt>
      <trkpt lat="45.98971" lon="4.62434">
        <ele>371</ele>
        <time>2022-10-13T12:45:43Z</time>
      </trkpt>
      <trkpt lat="45.98963" lon="4.62438">
        <ele>371</ele>
        <time>2022-10-13T12:45:53Z</time>
      </trkpt>
      <trkpt lat="45.98953" lon="4.62451">
        <ele>369</ele>
        <time>2022-10-13T12:46:13Z</time>
      </trkpt>
      <trkpt lat="45.98947" lon="4.62459">
        <ele>367</ele>
        <time>2022-10-13T12:46:23Z</time>
      </trkpt>
      <trkpt lat="45.98938" lon="4.6247">
        <ele>364</ele>
        <time>2022-10-13T12:46:39Z</time>
      </trkpt>
      <trkpt lat="45.98933" lon="4.62465">
        <ele>364</ele>
        <time>2022-10-13T12:46:51Z</time>
      </trkpt>
      <trkpt lat="45.98919" lon="4.6247">
        <ele>362</ele>
        <time>2022-10-13T12:47:04Z</time>
      </trkpt>
      <trkpt lat="45.98908" lon="4.62476">
        <ele>361</ele>
        <time>2022-10-13T12:47:29Z</time>
      </trkpt>
      <trkpt lat="45.98886" lon="4.62478">
        <ele>359</ele>
        <time>2022-10-13T12:47:53Z</time>
      </trkpt>
      <trkpt lat="45.98856" lon="4.62471">
        <ele>358</ele>
        <time>2022-10-13T12:48:22Z</time>
      </trkpt>
      <trkpt lat="45.98849" lon="4.62471">
        <ele>357</ele>
        <time>2022-10-13T12:48:31Z</time>
      </trkpt>
      <trkpt lat="45.98828" lon="4.62462">
        <ele>356</ele>
        <time>2022-10-13T12:48:49Z</time>
      </trkpt>
      <trkpt lat="45.98823" lon="4.62461">
        <ele>356</ele>
        <time>2022-10-13T12:48:54Z</time>
      </trkpt>
      <trkpt lat="45.98818" lon="4.6246">
        <ele>356</ele>
        <time>2022-10-13T12:49:00Z</time>
      </trkpt>
      <trkpt lat="45.98818" lon="4.62481">
        <ele>354</ele>
        <time>2022-10-13T12:49:30Z</time>
      </trkpt>
      <trkpt lat="45.98822" lon="4.62489">
        <ele>353</ele>
        <time>2022-10-13T12:49:39Z</time>
      </trkpt>
      <trkpt lat="45.98813" lon="4.62493">
        <ele>352</ele>
        <time>2022-10-13T12:49:47Z</time>
      </trkpt>
      <trkpt lat="45.98804" lon="4.62498">
        <ele>352</ele>
        <time>2022-10-13T12:49:55Z</time>
      </trkpt>
      <trkpt lat="45.98799" lon="4.62501">
        <ele>352</ele>
        <time>2022-10-13T12:50:12Z</time>
      </trkpt>
      <trkpt lat="45.98795" lon="4.62497">
        <ele>351</ele>
        <time>2022-10-13T12:50:42Z</time>
      </trkpt>
    </trkseg>
  </trk>
</gpx>